<?xml version="1.0" encoding="UTF-8" standalone="no" ?>
<gpx xmlns="http://www.topografix.com/GPX/1/1" xmlns:xsi="http://www.w3.org/2001/XMLSchema-instance" xsi:schemaLocation="http://www.topografix.com/GPX/1/1 http://www.topografix.com/GPX/1/1/gpx.xsd" version="1.1" creator="VisuGPX - https://www.visugpx.com">
  <metadata>
    <name>121030ChataigniersBesseMalaga</name>
    <desc><![CDATA[4 superbes descentes, et toutes les grimpettes à l\'avenant pour y accéder! Superbe sortie à faire par tous les amateurs de VTT CardioChaud!]]></desc>
  </metadata>
  <trk>
    <name><![CDATA[121030ChataigniersBesseMalaga]]></name>
    <trkseg>
      <trkpt lat="43.41865" lon="6.07265">
        <ele>223</ele>
        <time>2012-10-30T13:27:33Z</time>
      </trkpt>
      <trkpt lat="43.41864" lon="6.07208">
        <ele>223</ele>
        <time>2012-10-30T13:27:51Z</time>
      </trkpt>
      <trkpt lat="43.41853" lon="6.07203">
        <ele>223</ele>
        <time>2012-10-30T13:27:54Z</time>
      </trkpt>
      <trkpt lat="43.41842" lon="6.072">
        <ele>223</ele>
        <time>2012-10-30T13:27:57Z</time>
      </trkpt>
      <trkpt lat="43.4184" lon="6.07195">
        <ele>223</ele>
        <time>2012-10-30T13:27:59Z</time>
      </trkpt>
      <trkpt lat="43.41846" lon="6.07163">
        <ele>220.80000305176</ele>
        <time>2012-10-30T13:28:06Z</time>
      </trkpt>
      <trkpt lat="43.41844" lon="6.07137">
        <ele>219.19999694824</ele>
        <time>2012-10-30T13:28:11Z</time>
      </trkpt>
      <trkpt lat="43.418" lon="6.07103">
        <ele>218.80000305176</ele>
        <time>2012-10-30T13:28:24Z</time>
      </trkpt>
      <trkpt lat="43.41781" lon="6.07099">
        <ele>218.39999389648</ele>
        <time>2012-10-30T13:28:29Z</time>
      </trkpt>
      <trkpt lat="43.41743" lon="6.07093">
        <ele>216.80000305176</ele>
        <time>2012-10-30T13:28:39Z</time>
      </trkpt>
      <trkpt lat="43.41721" lon="6.07086">
        <ele>216.80000305176</ele>
        <time>2012-10-30T13:28:45Z</time>
      </trkpt>
      <trkpt lat="43.41717" lon="6.07082">
        <ele>216.80000305176</ele>
        <time>2012-10-30T13:28:46Z</time>
      </trkpt>
      <trkpt lat="43.41709" lon="6.07061">
        <ele>216.80000305176</ele>
        <time>2012-10-30T13:28:50Z</time>
      </trkpt>
      <trkpt lat="43.41706" lon="6.07029">
        <ele>216.80000305176</ele>
        <time>2012-10-30T13:28:55Z</time>
      </trkpt>
      <trkpt lat="43.41685" lon="6.06974">
        <ele>216.80000305176</ele>
        <time>2012-10-30T13:29:06Z</time>
      </trkpt>
      <trkpt lat="43.41655" lon="6.0696">
        <ele>216.80000305176</ele>
        <time>2012-10-30T13:29:14Z</time>
      </trkpt>
      <trkpt lat="43.41565" lon="6.06916">
        <ele>214.80000305176</ele>
        <time>2012-10-30T13:29:36Z</time>
      </trkpt>
      <trkpt lat="43.4151" lon="6.06892">
        <ele>212.60000610352</ele>
        <time>2012-10-30T13:29:49Z</time>
      </trkpt>
      <trkpt lat="43.41501" lon="6.0689">
        <ele>212.60000610352</ele>
        <time>2012-10-30T13:29:51Z</time>
      </trkpt>
      <trkpt lat="43.41489" lon="6.06887">
        <ele>212.60000610352</ele>
        <time>2012-10-30T13:29:54Z</time>
      </trkpt>
      <trkpt lat="43.41463" lon="6.06873">
        <ele>212.60000610352</ele>
        <time>2012-10-30T13:30:01Z</time>
      </trkpt>
      <trkpt lat="43.41451" lon="6.0686">
        <ele>212.60000610352</ele>
        <time>2012-10-30T13:30:05Z</time>
      </trkpt>
      <trkpt lat="43.41443" lon="6.06858">
        <ele>212.60000610352</ele>
        <time>2012-10-30T13:30:07Z</time>
      </trkpt>
      <trkpt lat="43.41422" lon="6.06867">
        <ele>212.60000610352</ele>
        <time>2012-10-30T13:30:13Z</time>
      </trkpt>
      <trkpt lat="43.41416" lon="6.06882">
        <ele>212.60000610352</ele>
        <time>2012-10-30T13:30:16Z</time>
      </trkpt>
      <trkpt lat="43.41417" lon="6.06904">
        <ele>212.60000610352</ele>
        <time>2012-10-30T13:30:20Z</time>
      </trkpt>
      <trkpt lat="43.41418" lon="6.06909">
        <ele>212.60000610352</ele>
        <time>2012-10-30T13:30:21Z</time>
      </trkpt>
      <trkpt lat="43.41428" lon="6.06934">
        <ele>212.60000610352</ele>
        <time>2012-10-30T13:30:26Z</time>
      </trkpt>
      <trkpt lat="43.41425" lon="6.06958">
        <ele>212.60000610352</ele>
        <time>2012-10-30T13:30:30Z</time>
      </trkpt>
      <trkpt lat="43.41333" lon="6.07412">
        <ele>208.60000610352</ele>
        <time>2012-10-30T13:31:40Z</time>
      </trkpt>
      <trkpt lat="43.41317" lon="6.07487">
        <ele>208.60000610352</ele>
        <time>2012-10-30T13:31:51Z</time>
      </trkpt>
      <trkpt lat="43.41301" lon="6.07553">
        <ele>208.60000610352</ele>
        <time>2012-10-30T13:32:01Z</time>
      </trkpt>
      <trkpt lat="43.4127" lon="6.07652">
        <ele>208.19999694824</ele>
        <time>2012-10-30T13:32:17Z</time>
      </trkpt>
      <trkpt lat="43.41228" lon="6.0775">
        <ele>206.39999389648</ele>
        <time>2012-10-30T13:32:34Z</time>
      </trkpt>
      <trkpt lat="43.41195" lon="6.0781">
        <ele>206.39999389648</ele>
        <time>2012-10-30T13:32:46Z</time>
      </trkpt>
      <trkpt lat="43.4114" lon="6.07894">
        <ele>208.39999389648</ele>
        <time>2012-10-30T13:33:04Z</time>
      </trkpt>
      <trkpt lat="43.41109" lon="6.07935">
        <ele>208.39999389648</ele>
        <time>2012-10-30T13:33:13Z</time>
      </trkpt>
      <trkpt lat="43.41041" lon="6.08003">
        <ele>208.39999389648</ele>
        <time>2012-10-30T13:33:30Z</time>
      </trkpt>
      <trkpt lat="43.40969" lon="6.0806">
        <ele>208.39999389648</ele>
        <time>2012-10-30T13:33:48Z</time>
      </trkpt>
      <trkpt lat="43.40816" lon="6.0815">
        <ele>208.39999389648</ele>
        <time>2012-10-30T13:34:25Z</time>
      </trkpt>
      <trkpt lat="43.4077" lon="6.08171">
        <ele>209.19999694824</ele>
        <time>2012-10-30T13:34:36Z</time>
      </trkpt>
      <trkpt lat="43.40736" lon="6.0818">
        <ele>210.39999389648</ele>
        <time>2012-10-30T13:34:44Z</time>
      </trkpt>
      <trkpt lat="43.40699" lon="6.08183">
        <ele>210.39999389648</ele>
        <time>2012-10-30T13:34:53Z</time>
      </trkpt>
      <trkpt lat="43.40635" lon="6.08175">
        <ele>212.60000610352</ele>
        <time>2012-10-30T13:35:09Z</time>
      </trkpt>
      <trkpt lat="43.40568" lon="6.08153">
        <ele>213</ele>
        <time>2012-10-30T13:35:27Z</time>
      </trkpt>
      <trkpt lat="43.40559" lon="6.08146">
        <ele>214.60000610352</ele>
        <time>2012-10-30T13:35:30Z</time>
      </trkpt>
      <trkpt lat="43.40552" lon="6.0813">
        <ele>214.60000610352</ele>
        <time>2012-10-30T13:35:34Z</time>
      </trkpt>
      <trkpt lat="43.4054" lon="6.08117">
        <ele>214.60000610352</ele>
        <time>2012-10-30T13:35:38Z</time>
      </trkpt>
      <trkpt lat="43.4052" lon="6.08118">
        <ele>214.60000610352</ele>
        <time>2012-10-30T13:35:43Z</time>
      </trkpt>
      <trkpt lat="43.405" lon="6.08137">
        <ele>214.60000610352</ele>
        <time>2012-10-30T13:35:49Z</time>
      </trkpt>
      <trkpt lat="43.40488" lon="6.08139">
        <ele>214.60000610352</ele>
        <time>2012-10-30T13:35:52Z</time>
      </trkpt>
      <trkpt lat="43.40484" lon="6.08139">
        <ele>214.60000610352</ele>
        <time>2012-10-30T13:35:53Z</time>
      </trkpt>
      <trkpt lat="43.40445" lon="6.08133">
        <ele>215.80000305176</ele>
        <time>2012-10-30T13:36:05Z</time>
      </trkpt>
      <trkpt lat="43.40386" lon="6.08124">
        <ele>221</ele>
        <time>2012-10-30T13:36:25Z</time>
      </trkpt>
      <trkpt lat="43.40356" lon="6.08123">
        <ele>221.39999389648</ele>
        <time>2012-10-30T13:36:35Z</time>
      </trkpt>
      <trkpt lat="43.40337" lon="6.08124">
        <ele>223</ele>
        <time>2012-10-30T13:36:41Z</time>
      </trkpt>
      <trkpt lat="43.40306" lon="6.08132">
        <ele>223</ele>
        <time>2012-10-30T13:36:51Z</time>
      </trkpt>
      <trkpt lat="43.40261" lon="6.0816">
        <ele>225.19999694824</ele>
        <time>2012-10-30T13:37:08Z</time>
      </trkpt>
      <trkpt lat="43.40249" lon="6.08171">
        <ele>225.19999694824</ele>
        <time>2012-10-30T13:37:13Z</time>
      </trkpt>
      <trkpt lat="43.4023" lon="6.08192">
        <ele>226.60000610352</ele>
        <time>2012-10-30T13:37:22Z</time>
      </trkpt>
      <trkpt lat="43.40168" lon="6.08272">
        <ele>233</ele>
        <time>2012-10-30T13:37:54Z</time>
      </trkpt>
      <trkpt lat="43.4015" lon="6.08289">
        <ele>234.19999694824</ele>
        <time>2012-10-30T13:38:02Z</time>
      </trkpt>
      <trkpt lat="43.40105" lon="6.0832">
        <ele>238.39999389648</ele>
        <time>2012-10-30T13:38:22Z</time>
      </trkpt>
      <trkpt lat="43.40094" lon="6.08324">
        <ele>240</ele>
        <time>2012-10-30T13:38:26Z</time>
      </trkpt>
      <trkpt lat="43.40084" lon="6.08323">
        <ele>240</ele>
        <time>2012-10-30T13:38:30Z</time>
      </trkpt>
      <trkpt lat="43.40077" lon="6.08312">
        <ele>240.80000305176</ele>
        <time>2012-10-30T13:38:34Z</time>
      </trkpt>
      <trkpt lat="43.40075" lon="6.08301">
        <ele>242</ele>
        <time>2012-10-30T13:38:37Z</time>
      </trkpt>
      <trkpt lat="43.40069" lon="6.08259">
        <ele>242</ele>
        <time>2012-10-30T13:38:47Z</time>
      </trkpt>
      <trkpt lat="43.40066" lon="6.08246">
        <ele>242</ele>
        <time>2012-10-30T13:38:50Z</time>
      </trkpt>
      <trkpt lat="43.40054" lon="6.08206">
        <ele>242</ele>
        <time>2012-10-30T13:38:57Z</time>
      </trkpt>
      <trkpt lat="43.40052" lon="6.08186">
        <ele>240.80000305176</ele>
        <time>2012-10-30T13:39:00Z</time>
      </trkpt>
      <trkpt lat="43.40047" lon="6.08177">
        <ele>240</ele>
        <time>2012-10-30T13:39:02Z</time>
      </trkpt>
      <trkpt lat="43.40034" lon="6.08173">
        <ele>240</ele>
        <time>2012-10-30T13:39:06Z</time>
      </trkpt>
      <trkpt lat="43.39989" lon="6.08173">
        <ele>240</ele>
        <time>2012-10-30T13:39:21Z</time>
      </trkpt>
      <trkpt lat="43.39973" lon="6.08162">
        <ele>240</ele>
        <time>2012-10-30T13:39:28Z</time>
      </trkpt>
      <trkpt lat="43.39952" lon="6.08127">
        <ele>242</ele>
        <time>2012-10-30T13:39:42Z</time>
      </trkpt>
      <trkpt lat="43.39899" lon="6.08064">
        <ele>244.19999694824</ele>
        <time>2012-10-30T13:40:11Z</time>
      </trkpt>
      <trkpt lat="43.3987" lon="6.08032">
        <ele>250.80000305176</ele>
        <time>2012-10-30T13:40:29Z</time>
      </trkpt>
      <trkpt lat="43.39866" lon="6.08029">
        <ele>250.80000305176</ele>
        <time>2012-10-30T13:40:32Z</time>
      </trkpt>
      <trkpt lat="43.39856" lon="6.08021">
        <ele>250.80000305176</ele>
        <time>2012-10-30T13:40:36Z</time>
      </trkpt>
      <trkpt lat="43.39825" lon="6.08002">
        <ele>250.80000305176</ele>
        <time>2012-10-30T13:40:48Z</time>
      </trkpt>
      <trkpt lat="43.3977" lon="6.07975">
        <ele>252</ele>
        <time>2012-10-30T13:41:12Z</time>
      </trkpt>
      <trkpt lat="43.39748" lon="6.07963">
        <ele>253.19999694824</ele>
        <time>2012-10-30T13:41:25Z</time>
      </trkpt>
      <trkpt lat="43.39708" lon="6.07921">
        <ele>257</ele>
        <time>2012-10-30T13:41:47Z</time>
      </trkpt>
      <trkpt lat="43.39694" lon="6.07903">
        <ele>259.20001220703</ele>
        <time>2012-10-30T13:41:58Z</time>
      </trkpt>
      <trkpt lat="43.39684" lon="6.07895">
        <ele>260.60000610352</ele>
        <time>2012-10-30T13:42:04Z</time>
      </trkpt>
      <trkpt lat="43.3968" lon="6.07894">
        <ele>261.60000610352</ele>
        <time>2012-10-30T13:42:06Z</time>
      </trkpt>
      <trkpt lat="43.39668" lon="6.0789">
        <ele>261.60000610352</ele>
        <time>2012-10-30T13:42:12Z</time>
      </trkpt>
      <trkpt lat="43.39639" lon="6.07893">
        <ele>261.60000610352</ele>
        <time>2012-10-30T13:42:26Z</time>
      </trkpt>
      <trkpt lat="43.39614" lon="6.07903">
        <ele>263.60000610352</ele>
        <time>2012-10-30T13:42:38Z</time>
      </trkpt>
      <trkpt lat="43.39609" lon="6.07906">
        <ele>263.60000610352</ele>
        <time>2012-10-30T13:42:41Z</time>
      </trkpt>
      <trkpt lat="43.39586" lon="6.07909">
        <ele>267</ele>
        <time>2012-10-30T13:42:54Z</time>
      </trkpt>
      <trkpt lat="43.39575" lon="6.07932">
        <ele>267.79998779297</ele>
        <time>2012-10-30T13:43:05Z</time>
      </trkpt>
      <trkpt lat="43.39508" lon="6.07957">
        <ele>276</ele>
        <time>2012-10-30T13:43:45Z</time>
      </trkpt>
      <trkpt lat="43.39431" lon="6.07986">
        <ele>279.20001220703</ele>
        <time>2012-10-30T13:44:27Z</time>
      </trkpt>
      <trkpt lat="43.39425" lon="6.0799">
        <ele>280.39999389648</ele>
        <time>2012-10-30T13:44:30Z</time>
      </trkpt>
      <trkpt lat="43.3939" lon="6.08008">
        <ele>282.60000610352</ele>
        <time>2012-10-30T13:44:48Z</time>
      </trkpt>
      <trkpt lat="43.39376" lon="6.08007">
        <ele>282.60000610352</ele>
        <time>2012-10-30T13:44:55Z</time>
      </trkpt>
      <trkpt lat="43.3937" lon="6.08013">
        <ele>284.60000610352</ele>
        <time>2012-10-30T13:45:00Z</time>
      </trkpt>
      <trkpt lat="43.3936" lon="6.08025">
        <ele>284.60000610352</ele>
        <time>2012-10-30T13:45:09Z</time>
      </trkpt>
      <trkpt lat="43.39357" lon="6.08028">
        <ele>284.60000610352</ele>
        <time>2012-10-30T13:45:36Z</time>
      </trkpt>
      <trkpt lat="43.39356" lon="6.08032">
        <ele>285</ele>
        <time>2012-10-30T13:45:41Z</time>
      </trkpt>
      <trkpt lat="43.39374" lon="6.08007">
        <ele>286.60000610352</ele>
        <time>2012-10-30T13:45:48Z</time>
      </trkpt>
      <trkpt lat="43.39386" lon="6.08001">
        <ele>285.79998779297</ele>
        <time>2012-10-30T13:45:52Z</time>
      </trkpt>
      <trkpt lat="43.39382" lon="6.07996">
        <ele>284.60000610352</ele>
        <time>2012-10-30T13:45:55Z</time>
      </trkpt>
      <trkpt lat="43.39358" lon="6.08025">
        <ele>284.60000610352</ele>
        <time>2012-10-30T13:49:12Z</time>
      </trkpt>
      <trkpt lat="43.39342" lon="6.08042">
        <ele>284.60000610352</ele>
        <time>2012-10-30T13:49:51Z</time>
      </trkpt>
      <trkpt lat="43.39314" lon="6.08085">
        <ele>286.79998779297</ele>
        <time>2012-10-30T13:50:10Z</time>
      </trkpt>
      <trkpt lat="43.39288" lon="6.08138">
        <ele>289.60000610352</ele>
        <time>2012-10-30T13:50:34Z</time>
      </trkpt>
      <trkpt lat="43.39287" lon="6.08145">
        <ele>291</ele>
        <time>2012-10-30T13:50:37Z</time>
      </trkpt>
      <trkpt lat="43.39287" lon="6.08149">
        <ele>291</ele>
        <time>2012-10-30T13:50:48Z</time>
      </trkpt>
      <trkpt lat="43.39286" lon="6.08157">
        <ele>291</ele>
        <time>2012-10-30T13:50:53Z</time>
      </trkpt>
      <trkpt lat="43.39275" lon="6.08191">
        <ele>293.39999389648</ele>
        <time>2012-10-30T13:51:13Z</time>
      </trkpt>
      <trkpt lat="43.39273" lon="6.08221">
        <ele>295</ele>
        <time>2012-10-30T13:51:27Z</time>
      </trkpt>
      <trkpt lat="43.39262" lon="6.08261">
        <ele>297</ele>
        <time>2012-10-30T13:51:46Z</time>
      </trkpt>
      <trkpt lat="43.39256" lon="6.08266">
        <ele>298</ele>
        <time>2012-10-30T13:51:50Z</time>
      </trkpt>
      <trkpt lat="43.39249" lon="6.08275">
        <ele>299.20001220703</ele>
        <time>2012-10-30T13:51:57Z</time>
      </trkpt>
      <trkpt lat="43.39222" lon="6.08332">
        <ele>305.39999389648</ele>
        <time>2012-10-30T13:52:56Z</time>
      </trkpt>
      <trkpt lat="43.39212" lon="6.08382">
        <ele>309.20001220703</ele>
        <time>2012-10-30T13:53:22Z</time>
      </trkpt>
      <trkpt lat="43.39211" lon="6.08384">
        <ele>309.60000610352</ele>
        <time>2012-10-30T13:53:23Z</time>
      </trkpt>
      <trkpt lat="43.39211" lon="6.08406">
        <ele>309.60000610352</ele>
        <time>2012-10-30T13:53:32Z</time>
      </trkpt>
      <trkpt lat="43.39205" lon="6.08428">
        <ele>311.79998779297</ele>
        <time>2012-10-30T13:53:44Z</time>
      </trkpt>
      <trkpt lat="43.39204" lon="6.0843">
        <ele>311.79998779297</ele>
        <time>2012-10-30T13:53:52Z</time>
      </trkpt>
      <trkpt lat="43.39205" lon="6.08443">
        <ele>313.79998779297</ele>
        <time>2012-10-30T13:54:16Z</time>
      </trkpt>
      <trkpt lat="43.39198" lon="6.08497">
        <ele>315.79998779297</ele>
        <time>2012-10-30T13:54:42Z</time>
      </trkpt>
      <trkpt lat="43.3919" lon="6.08518">
        <ele>315.79998779297</ele>
        <time>2012-10-30T13:54:52Z</time>
      </trkpt>
      <trkpt lat="43.39173" lon="6.08572">
        <ele>315.79998779297</ele>
        <time>2012-10-30T13:55:08Z</time>
      </trkpt>
      <trkpt lat="43.39165" lon="6.08617">
        <ele>314.60000610352</ele>
        <time>2012-10-30T13:55:17Z</time>
      </trkpt>
      <trkpt lat="43.39151" lon="6.0867">
        <ele>313.79998779297</ele>
        <time>2012-10-30T13:55:29Z</time>
      </trkpt>
      <trkpt lat="43.39149" lon="6.08683">
        <ele>313.79998779297</ele>
        <time>2012-10-30T13:55:32Z</time>
      </trkpt>
      <trkpt lat="43.39143" lon="6.08734">
        <ele>313.79998779297</ele>
        <time>2012-10-30T13:55:44Z</time>
      </trkpt>
      <trkpt lat="43.39122" lon="6.08813">
        <ele>313.79998779297</ele>
        <time>2012-10-30T13:56:03Z</time>
      </trkpt>
      <trkpt lat="43.39094" lon="6.0894">
        <ele>316</ele>
        <time>2012-10-30T13:56:34Z</time>
      </trkpt>
      <trkpt lat="43.39074" lon="6.09004">
        <ele>316</ele>
        <time>2012-10-30T13:56:51Z</time>
      </trkpt>
      <trkpt lat="43.39044" lon="6.09061">
        <ele>318</ele>
        <time>2012-10-30T13:57:10Z</time>
      </trkpt>
      <trkpt lat="43.39029" lon="6.09104">
        <ele>318.79998779297</ele>
        <time>2012-10-30T13:57:22Z</time>
      </trkpt>
      <trkpt lat="43.39009" lon="6.09175">
        <ele>320</ele>
        <time>2012-10-30T13:57:42Z</time>
      </trkpt>
      <trkpt lat="43.38998" lon="6.09234">
        <ele>322</ele>
        <time>2012-10-30T13:57:57Z</time>
      </trkpt>
      <trkpt lat="43.38989" lon="6.09267">
        <ele>322</ele>
        <time>2012-10-30T13:58:07Z</time>
      </trkpt>
      <trkpt lat="43.38971" lon="6.09307">
        <ele>323</ele>
        <time>2012-10-30T13:58:24Z</time>
      </trkpt>
      <trkpt lat="43.38955" lon="6.09334">
        <ele>324.20001220703</ele>
        <time>2012-10-30T13:58:36Z</time>
      </trkpt>
      <trkpt lat="43.38925" lon="6.09368">
        <ele>326.20001220703</ele>
        <time>2012-10-30T13:58:50Z</time>
      </trkpt>
      <trkpt lat="43.38894" lon="6.09405">
        <ele>328.39999389648</ele>
        <time>2012-10-30T13:59:12Z</time>
      </trkpt>
      <trkpt lat="43.38892" lon="6.09411">
        <ele>330.39999389648</ele>
        <time>2012-10-30T13:59:29Z</time>
      </trkpt>
      <trkpt lat="43.38889" lon="6.09419">
        <ele>330.39999389648</ele>
        <time>2012-10-30T13:59:35Z</time>
      </trkpt>
      <trkpt lat="43.38881" lon="6.09426">
        <ele>332.60000610352</ele>
        <time>2012-10-30T13:59:53Z</time>
      </trkpt>
      <trkpt lat="43.3888" lon="6.09428">
        <ele>334.60000610352</ele>
        <time>2012-10-30T14:00:09Z</time>
      </trkpt>
      <trkpt lat="43.38875" lon="6.09429">
        <ele>334.60000610352</ele>
        <time>2012-10-30T14:00:14Z</time>
      </trkpt>
      <trkpt lat="43.38866" lon="6.09425">
        <ele>334.60000610352</ele>
        <time>2012-10-30T14:00:20Z</time>
      </trkpt>
      <trkpt lat="43.38863" lon="6.09415">
        <ele>333.60000610352</ele>
        <time>2012-10-30T14:00:23Z</time>
      </trkpt>
      <trkpt lat="43.38849" lon="6.09396">
        <ele>331.39999389648</ele>
        <time>2012-10-30T14:00:31Z</time>
      </trkpt>
      <trkpt lat="43.38844" lon="6.09389">
        <ele>330</ele>
        <time>2012-10-30T14:00:34Z</time>
      </trkpt>
      <trkpt lat="43.38837" lon="6.09414">
        <ele>326</ele>
        <time>2012-10-30T14:00:43Z</time>
      </trkpt>
      <trkpt lat="43.38835" lon="6.09422">
        <ele>325.20001220703</ele>
        <time>2012-10-30T14:00:46Z</time>
      </trkpt>
      <trkpt lat="43.38831" lon="6.09426">
        <ele>323.79998779297</ele>
        <time>2012-10-30T14:00:49Z</time>
      </trkpt>
      <trkpt lat="43.38826" lon="6.09418">
        <ele>322.79998779297</ele>
        <time>2012-10-30T14:00:52Z</time>
      </trkpt>
      <trkpt lat="43.38804" lon="6.09384">
        <ele>320</ele>
        <time>2012-10-30T14:00:58Z</time>
      </trkpt>
      <trkpt lat="43.38774" lon="6.09356">
        <ele>314.79998779297</ele>
        <time>2012-10-30T14:01:04Z</time>
      </trkpt>
      <trkpt lat="43.38755" lon="6.09347">
        <ele>312.20001220703</ele>
        <time>2012-10-30T14:01:07Z</time>
      </trkpt>
      <trkpt lat="43.38743" lon="6.09343">
        <ele>310</ele>
        <time>2012-10-30T14:01:09Z</time>
      </trkpt>
      <trkpt lat="43.38724" lon="6.09339">
        <ele>306</ele>
        <time>2012-10-30T14:01:12Z</time>
      </trkpt>
      <trkpt lat="43.38684" lon="6.09306">
        <ele>297.39999389648</ele>
        <time>2012-10-30T14:01:19Z</time>
      </trkpt>
      <trkpt lat="43.3868" lon="6.09304">
        <ele>296.20001220703</ele>
        <time>2012-10-30T14:01:20Z</time>
      </trkpt>
      <trkpt lat="43.38672" lon="6.09312">
        <ele>292.60000610352</ele>
        <time>2012-10-30T14:01:23Z</time>
      </trkpt>
      <trkpt lat="43.3867" lon="6.09317">
        <ele>288.20001220703</ele>
        <time>2012-10-30T14:01:26Z</time>
      </trkpt>
      <trkpt lat="43.3867" lon="6.09327">
        <ele>287</ele>
        <time>2012-10-30T14:01:32Z</time>
      </trkpt>
      <trkpt lat="43.3867" lon="6.09343">
        <ele>287</ele>
        <time>2012-10-30T14:01:39Z</time>
      </trkpt>
      <trkpt lat="43.38675" lon="6.09362">
        <ele>287</ele>
        <time>2012-10-30T14:01:44Z</time>
      </trkpt>
      <trkpt lat="43.38677" lon="6.09389">
        <ele>287</ele>
        <time>2012-10-30T14:01:49Z</time>
      </trkpt>
      <trkpt lat="43.38675" lon="6.09419">
        <ele>285.39999389648</ele>
        <time>2012-10-30T14:01:53Z</time>
      </trkpt>
      <trkpt lat="43.38678" lon="6.09467">
        <ele>285</ele>
        <time>2012-10-30T14:02:01Z</time>
      </trkpt>
      <trkpt lat="43.3867" lon="6.0954">
        <ele>285</ele>
        <time>2012-10-30T14:02:13Z</time>
      </trkpt>
      <trkpt lat="43.38669" lon="6.09608">
        <ele>285</ele>
        <time>2012-10-30T14:02:25Z</time>
      </trkpt>
      <trkpt lat="43.38659" lon="6.09648">
        <ele>285</ele>
        <time>2012-10-30T14:02:32Z</time>
      </trkpt>
      <trkpt lat="43.38599" lon="6.09773">
        <ele>278.79998779297</ele>
        <time>2012-10-30T14:02:49Z</time>
      </trkpt>
      <trkpt lat="43.38594" lon="6.09799">
        <ele>278.79998779297</ele>
        <time>2012-10-30T14:02:53Z</time>
      </trkpt>
      <trkpt lat="43.38592" lon="6.09836">
        <ele>278.79998779297</ele>
        <time>2012-10-30T14:03:00Z</time>
      </trkpt>
      <trkpt lat="43.38594" lon="6.09875">
        <ele>280.79998779297</ele>
        <time>2012-10-30T14:03:09Z</time>
      </trkpt>
      <trkpt lat="43.38596" lon="6.09906">
        <ele>282.79998779297</ele>
        <time>2012-10-30T14:03:17Z</time>
      </trkpt>
      <trkpt lat="43.38603" lon="6.09928">
        <ele>284.20001220703</ele>
        <time>2012-10-30T14:03:24Z</time>
      </trkpt>
      <trkpt lat="43.38626" lon="6.09957">
        <ele>286.60000610352</ele>
        <time>2012-10-30T14:03:36Z</time>
      </trkpt>
      <trkpt lat="43.38652" lon="6.0998">
        <ele>287.39999389648</ele>
        <time>2012-10-30T14:03:47Z</time>
      </trkpt>
      <trkpt lat="43.38657" lon="6.09984">
        <ele>288.20001220703</ele>
        <time>2012-10-30T14:03:49Z</time>
      </trkpt>
      <trkpt lat="43.38694" lon="6.10011">
        <ele>289.20001220703</ele>
        <time>2012-10-30T14:04:03Z</time>
      </trkpt>
      <trkpt lat="43.38718" lon="6.10065">
        <ele>291.20001220703</ele>
        <time>2012-10-30T14:04:20Z</time>
      </trkpt>
      <trkpt lat="43.38745" lon="6.10111">
        <ele>292</ele>
        <time>2012-10-30T14:04:36Z</time>
      </trkpt>
      <trkpt lat="43.38758" lon="6.10129">
        <ele>293.20001220703</ele>
        <time>2012-10-30T14:04:44Z</time>
      </trkpt>
      <trkpt lat="43.38794" lon="6.10169">
        <ele>297.39999389648</ele>
        <time>2012-10-30T14:05:14Z</time>
      </trkpt>
      <trkpt lat="43.38796" lon="6.1017">
        <ele>297.39999389648</ele>
        <time>2012-10-30T14:05:15Z</time>
      </trkpt>
      <trkpt lat="43.3882" lon="6.10164">
        <ele>297.79998779297</ele>
        <time>2012-10-30T14:05:25Z</time>
      </trkpt>
      <trkpt lat="43.38825" lon="6.10167">
        <ele>298.60000610352</ele>
        <time>2012-10-30T14:05:27Z</time>
      </trkpt>
      <trkpt lat="43.38826" lon="6.10172">
        <ele>299</ele>
        <time>2012-10-30T14:05:28Z</time>
      </trkpt>
      <trkpt lat="43.38818" lon="6.1022">
        <ele>301</ele>
        <time>2012-10-30T14:05:43Z</time>
      </trkpt>
      <trkpt lat="43.38819" lon="6.10226">
        <ele>301.39999389648</ele>
        <time>2012-10-30T14:05:45Z</time>
      </trkpt>
      <trkpt lat="43.38825" lon="6.10246">
        <ele>301.39999389648</ele>
        <time>2012-10-30T14:05:50Z</time>
      </trkpt>
      <trkpt lat="43.38832" lon="6.10304">
        <ele>299.20001220703</ele>
        <time>2012-10-30T14:05:59Z</time>
      </trkpt>
      <trkpt lat="43.38831" lon="6.10332">
        <ele>298.79998779297</ele>
        <time>2012-10-30T14:06:03Z</time>
      </trkpt>
      <trkpt lat="43.38833" lon="6.1041">
        <ele>297.20001220703</ele>
        <time>2012-10-30T14:06:14Z</time>
      </trkpt>
      <trkpt lat="43.38826" lon="6.10483">
        <ele>294.20001220703</ele>
        <time>2012-10-30T14:06:23Z</time>
      </trkpt>
      <trkpt lat="43.38815" lon="6.10524">
        <ele>292.60000610352</ele>
        <time>2012-10-30T14:06:29Z</time>
      </trkpt>
      <trkpt lat="43.38812" lon="6.10552">
        <ele>291.79998779297</ele>
        <time>2012-10-30T14:06:33Z</time>
      </trkpt>
      <trkpt lat="43.38807" lon="6.10563">
        <ele>291</ele>
        <time>2012-10-30T14:06:35Z</time>
      </trkpt>
      <trkpt lat="43.38804" lon="6.1059">
        <ele>290.39999389648</ele>
        <time>2012-10-30T14:06:40Z</time>
      </trkpt>
      <trkpt lat="43.38781" lon="6.107">
        <ele>286.20001220703</ele>
        <time>2012-10-30T14:06:57Z</time>
      </trkpt>
      <trkpt lat="43.38771" lon="6.10765">
        <ele>284</ele>
        <time>2012-10-30T14:07:14Z</time>
      </trkpt>
      <trkpt lat="43.38771" lon="6.1076">
        <ele>284</ele>
        <time>2012-10-30T14:07:18Z</time>
      </trkpt>
      <trkpt lat="43.38739" lon="6.10775">
        <ele>284</ele>
        <time>2012-10-30T14:07:37Z</time>
      </trkpt>
      <trkpt lat="43.38729" lon="6.10799">
        <ele>284</ele>
        <time>2012-10-30T14:07:45Z</time>
      </trkpt>
      <trkpt lat="43.38707" lon="6.10812">
        <ele>284</ele>
        <time>2012-10-30T14:07:56Z</time>
      </trkpt>
      <trkpt lat="43.387" lon="6.10821">
        <ele>285.20001220703</ele>
        <time>2012-10-30T14:08:00Z</time>
      </trkpt>
      <trkpt lat="43.38696" lon="6.10829">
        <ele>286</ele>
        <time>2012-10-30T14:08:03Z</time>
      </trkpt>
      <trkpt lat="43.38691" lon="6.10859">
        <ele>286</ele>
        <time>2012-10-30T14:08:12Z</time>
      </trkpt>
      <trkpt lat="43.38686" lon="6.10886">
        <ele>286</ele>
        <time>2012-10-30T14:08:19Z</time>
      </trkpt>
      <trkpt lat="43.38677" lon="6.10904">
        <ele>286</ele>
        <time>2012-10-30T14:08:25Z</time>
      </trkpt>
      <trkpt lat="43.38667" lon="6.10935">
        <ele>286</ele>
        <time>2012-10-30T14:08:35Z</time>
      </trkpt>
      <trkpt lat="43.38662" lon="6.11">
        <ele>286</ele>
        <time>2012-10-30T14:08:53Z</time>
      </trkpt>
      <trkpt lat="43.38655" lon="6.11004">
        <ele>286</ele>
        <time>2012-10-30T14:08:56Z</time>
      </trkpt>
      <trkpt lat="43.38644" lon="6.11005">
        <ele>288</ele>
        <time>2012-10-30T14:09:19Z</time>
      </trkpt>
      <trkpt lat="43.38639" lon="6.1101">
        <ele>288</ele>
        <time>2012-10-30T14:09:24Z</time>
      </trkpt>
      <trkpt lat="43.38621" lon="6.10995">
        <ele>290</ele>
        <time>2012-10-30T14:09:38Z</time>
      </trkpt>
      <trkpt lat="43.38606" lon="6.10989">
        <ele>290</ele>
        <time>2012-10-30T14:09:45Z</time>
      </trkpt>
      <trkpt lat="43.38566" lon="6.1099">
        <ele>290</ele>
        <time>2012-10-30T14:09:57Z</time>
      </trkpt>
      <trkpt lat="43.38526" lon="6.10973">
        <ele>288</ele>
        <time>2012-10-30T14:10:05Z</time>
      </trkpt>
      <trkpt lat="43.38493" lon="6.10963">
        <ele>286.39999389648</ele>
        <time>2012-10-30T14:10:10Z</time>
      </trkpt>
      <trkpt lat="43.38486" lon="6.10963">
        <ele>285.79998779297</ele>
        <time>2012-10-30T14:10:11Z</time>
      </trkpt>
      <trkpt lat="43.38465" lon="6.10959">
        <ele>283.20001220703</ele>
        <time>2012-10-30T14:10:20Z</time>
      </trkpt>
      <trkpt lat="43.38448" lon="6.10958">
        <ele>283.20001220703</ele>
        <time>2012-10-30T14:10:25Z</time>
      </trkpt>
      <trkpt lat="43.38428" lon="6.10954">
        <ele>282.39999389648</ele>
        <time>2012-10-30T14:10:30Z</time>
      </trkpt>
      <trkpt lat="43.38396" lon="6.10947">
        <ele>281.20001220703</ele>
        <time>2012-10-30T14:10:37Z</time>
      </trkpt>
      <trkpt lat="43.38244" lon="6.10902">
        <ele>279</ele>
        <time>2012-10-30T14:11:13Z</time>
      </trkpt>
      <trkpt lat="43.38203" lon="6.10889">
        <ele>279</ele>
        <time>2012-10-30T14:11:24Z</time>
      </trkpt>
      <trkpt lat="43.38194" lon="6.10899">
        <ele>279</ele>
        <time>2012-10-30T14:11:28Z</time>
      </trkpt>
      <trkpt lat="43.38192" lon="6.10925">
        <ele>279</ele>
        <time>2012-10-30T14:11:34Z</time>
      </trkpt>
      <trkpt lat="43.3818" lon="6.10977">
        <ele>281.20001220703</ele>
        <time>2012-10-30T14:11:47Z</time>
      </trkpt>
      <trkpt lat="43.38169" lon="6.11036">
        <ele>282.79998779297</ele>
        <time>2012-10-30T14:12:03Z</time>
      </trkpt>
      <trkpt lat="43.38157" lon="6.11082">
        <ele>283.60000610352</ele>
        <time>2012-10-30T14:12:16Z</time>
      </trkpt>
      <trkpt lat="43.38148" lon="6.11105">
        <ele>285.39999389648</ele>
        <time>2012-10-30T14:12:23Z</time>
      </trkpt>
      <trkpt lat="43.38128" lon="6.11133">
        <ele>285.79998779297</ele>
        <time>2012-10-30T14:12:34Z</time>
      </trkpt>
      <trkpt lat="43.38118" lon="6.11144">
        <ele>287.39999389648</ele>
        <time>2012-10-30T14:12:39Z</time>
      </trkpt>
      <trkpt lat="43.3812" lon="6.11217">
        <ele>289.39999389648</ele>
        <time>2012-10-30T14:13:00Z</time>
      </trkpt>
      <trkpt lat="43.38112" lon="6.11339">
        <ele>292.79998779297</ele>
        <time>2012-10-30T14:13:34Z</time>
      </trkpt>
      <trkpt lat="43.38103" lon="6.1141">
        <ele>295.20001220703</ele>
        <time>2012-10-30T14:13:53Z</time>
      </trkpt>
      <trkpt lat="43.38089" lon="6.11467">
        <ele>296</ele>
        <time>2012-10-30T14:14:10Z</time>
      </trkpt>
      <trkpt lat="43.38079" lon="6.11625">
        <ele>301.79998779297</ele>
        <time>2012-10-30T14:15:01Z</time>
      </trkpt>
      <trkpt lat="43.38078" lon="6.11645">
        <ele>301.79998779297</ele>
        <time>2012-10-30T14:15:08Z</time>
      </trkpt>
      <trkpt lat="43.38073" lon="6.11667">
        <ele>302.60000610352</ele>
        <time>2012-10-30T14:15:16Z</time>
      </trkpt>
      <trkpt lat="43.38068" lon="6.11726">
        <ele>305.39999389648</ele>
        <time>2012-10-30T14:15:35Z</time>
      </trkpt>
      <trkpt lat="43.38069" lon="6.11769">
        <ele>306.20001220703</ele>
        <time>2012-10-30T14:15:50Z</time>
      </trkpt>
      <trkpt lat="43.38075" lon="6.11789">
        <ele>308</ele>
        <time>2012-10-30T14:15:58Z</time>
      </trkpt>
      <trkpt lat="43.38078" lon="6.11822">
        <ele>308.79998779297</ele>
        <time>2012-10-30T14:16:10Z</time>
      </trkpt>
      <trkpt lat="43.38077" lon="6.11828">
        <ele>309.60000610352</ele>
        <time>2012-10-30T14:16:12Z</time>
      </trkpt>
      <trkpt lat="43.38076" lon="6.11911">
        <ele>312.60000610352</ele>
        <time>2012-10-30T14:16:44Z</time>
      </trkpt>
      <trkpt lat="43.38076" lon="6.11955">
        <ele>315</ele>
        <time>2012-10-30T14:16:59Z</time>
      </trkpt>
      <trkpt lat="43.38073" lon="6.11982">
        <ele>317.60000610352</ele>
        <time>2012-10-30T14:17:09Z</time>
      </trkpt>
      <trkpt lat="43.38069" lon="6.12">
        <ele>319.79998779297</ele>
        <time>2012-10-30T14:17:17Z</time>
      </trkpt>
      <trkpt lat="43.38065" lon="6.12054">
        <ele>324.79998779297</ele>
        <time>2012-10-30T14:17:40Z</time>
      </trkpt>
      <trkpt lat="43.38066" lon="6.12054">
        <ele>324.79998779297</ele>
        <time>2012-10-30T14:18:00Z</time>
      </trkpt>
      <trkpt lat="43.38066" lon="6.12058">
        <ele>324.79998779297</ele>
        <time>2012-10-30T14:18:01Z</time>
      </trkpt>
      <trkpt lat="43.38057" lon="6.12106">
        <ele>327</ele>
        <time>2012-10-30T14:18:20Z</time>
      </trkpt>
      <trkpt lat="43.3804" lon="6.12146">
        <ele>330.20001220703</ele>
        <time>2012-10-30T14:18:38Z</time>
      </trkpt>
      <trkpt lat="43.38036" lon="6.12177">
        <ele>331.79998779297</ele>
        <time>2012-10-30T14:18:49Z</time>
      </trkpt>
      <trkpt lat="43.38035" lon="6.1218">
        <ele>332.20001220703</ele>
        <time>2012-10-30T14:18:50Z</time>
      </trkpt>
      <trkpt lat="43.38036" lon="6.1221">
        <ele>333</ele>
        <time>2012-10-30T14:19:02Z</time>
      </trkpt>
      <trkpt lat="43.38051" lon="6.12254">
        <ele>335</ele>
        <time>2012-10-30T14:19:17Z</time>
      </trkpt>
      <trkpt lat="43.38052" lon="6.12278">
        <ele>335.39999389648</ele>
        <time>2012-10-30T14:19:25Z</time>
      </trkpt>
      <trkpt lat="43.38049" lon="6.12297">
        <ele>338</ele>
        <time>2012-10-30T14:19:33Z</time>
      </trkpt>
      <trkpt lat="43.38052" lon="6.12312">
        <ele>339.20001220703</ele>
        <time>2012-10-30T14:19:39Z</time>
      </trkpt>
      <trkpt lat="43.38049" lon="6.12357">
        <ele>341.20001220703</ele>
        <time>2012-10-30T14:19:56Z</time>
      </trkpt>
      <trkpt lat="43.3805" lon="6.12364">
        <ele>341.20001220703</ele>
        <time>2012-10-30T14:19:59Z</time>
      </trkpt>
      <trkpt lat="43.38058" lon="6.12401">
        <ele>343.79998779297</ele>
        <time>2012-10-30T14:20:13Z</time>
      </trkpt>
      <trkpt lat="43.3806" lon="6.1241">
        <ele>345.79998779297</ele>
        <time>2012-10-30T14:20:17Z</time>
      </trkpt>
      <trkpt lat="43.38062" lon="6.12452">
        <ele>350</ele>
        <time>2012-10-30T14:20:39Z</time>
      </trkpt>
      <trkpt lat="43.38065" lon="6.12505">
        <ele>352.20001220703</ele>
        <time>2012-10-30T14:21:00Z</time>
      </trkpt>
      <trkpt lat="43.38063" lon="6.12529">
        <ele>352.20001220703</ele>
        <time>2012-10-30T14:21:09Z</time>
      </trkpt>
      <trkpt lat="43.3806" lon="6.12538">
        <ele>354.20001220703</ele>
        <time>2012-10-30T14:21:13Z</time>
      </trkpt>
      <trkpt lat="43.38056" lon="6.12583">
        <ele>356.39999389648</ele>
        <time>2012-10-30T14:21:32Z</time>
      </trkpt>
      <trkpt lat="43.38041" lon="6.12643">
        <ele>360.39999389648</ele>
        <time>2012-10-30T14:21:58Z</time>
      </trkpt>
      <trkpt lat="43.38039" lon="6.12665">
        <ele>362.60000610352</ele>
        <time>2012-10-30T14:22:06Z</time>
      </trkpt>
      <trkpt lat="43.38021" lon="6.12708">
        <ele>364.60000610352</ele>
        <time>2012-10-30T14:22:29Z</time>
      </trkpt>
      <trkpt lat="43.38016" lon="6.12741">
        <ele>366.60000610352</ele>
        <time>2012-10-30T14:22:43Z</time>
      </trkpt>
      <trkpt lat="43.37993" lon="6.12821">
        <ele>370.60000610352</ele>
        <time>2012-10-30T14:23:18Z</time>
      </trkpt>
      <trkpt lat="43.37991" lon="6.12843">
        <ele>372.20001220703</ele>
        <time>2012-10-30T14:23:25Z</time>
      </trkpt>
      <trkpt lat="43.37975" lon="6.12925">
        <ele>377.79998779297</ele>
        <time>2012-10-30T14:24:00Z</time>
      </trkpt>
      <trkpt lat="43.37962" lon="6.12954">
        <ele>380.60000610352</ele>
        <time>2012-10-30T14:24:13Z</time>
      </trkpt>
      <trkpt lat="43.37958" lon="6.12982">
        <ele>381.60000610352</ele>
        <time>2012-10-30T14:24:25Z</time>
      </trkpt>
      <trkpt lat="43.37957" lon="6.12983">
        <ele>382</ele>
        <time>2012-10-30T14:24:26Z</time>
      </trkpt>
      <trkpt lat="43.37939" lon="6.13018">
        <ele>383.60000610352</ele>
        <time>2012-10-30T14:24:44Z</time>
      </trkpt>
      <trkpt lat="43.37922" lon="6.13043">
        <ele>385.39999389648</ele>
        <time>2012-10-30T14:24:57Z</time>
      </trkpt>
      <trkpt lat="43.37914" lon="6.13066">
        <ele>387.39999389648</ele>
        <time>2012-10-30T14:25:06Z</time>
      </trkpt>
      <trkpt lat="43.37914" lon="6.13097">
        <ele>388.60000610352</ele>
        <time>2012-10-30T14:25:18Z</time>
      </trkpt>
      <trkpt lat="43.37913" lon="6.13099">
        <ele>389.39999389648</ele>
        <time>2012-10-30T14:25:19Z</time>
      </trkpt>
      <trkpt lat="43.37898" lon="6.13192">
        <ele>393.60000610352</ele>
        <time>2012-10-30T14:25:58Z</time>
      </trkpt>
      <trkpt lat="43.37889" lon="6.13237">
        <ele>397.60000610352</ele>
        <time>2012-10-30T14:26:17Z</time>
      </trkpt>
      <trkpt lat="43.37888" lon="6.13256">
        <ele>398.39999389648</ele>
        <time>2012-10-30T14:26:24Z</time>
      </trkpt>
      <trkpt lat="43.37887" lon="6.1329">
        <ele>401.79998779297</ele>
        <time>2012-10-30T14:26:37Z</time>
      </trkpt>
      <trkpt lat="43.37875" lon="6.13336">
        <ele>406</ele>
        <time>2012-10-30T14:26:58Z</time>
      </trkpt>
      <trkpt lat="43.37873" lon="6.13351">
        <ele>407.60000610352</ele>
        <time>2012-10-30T14:27:08Z</time>
      </trkpt>
      <trkpt lat="43.37859" lon="6.13426">
        <ele>408</ele>
        <time>2012-10-30T14:27:38Z</time>
      </trkpt>
      <trkpt lat="43.37858" lon="6.13443">
        <ele>408</ele>
        <time>2012-10-30T14:27:44Z</time>
      </trkpt>
      <trkpt lat="43.37858" lon="6.13449">
        <ele>409</ele>
        <time>2012-10-30T14:27:47Z</time>
      </trkpt>
      <trkpt lat="43.37861" lon="6.13488">
        <ele>411.79998779297</ele>
        <time>2012-10-30T14:28:01Z</time>
      </trkpt>
      <trkpt lat="43.37858" lon="6.13513">
        <ele>413.39999389648</ele>
        <time>2012-10-30T14:28:11Z</time>
      </trkpt>
      <trkpt lat="43.37858" lon="6.13516">
        <ele>413.79998779297</ele>
        <time>2012-10-30T14:28:12Z</time>
      </trkpt>
      <trkpt lat="43.37854" lon="6.13538">
        <ele>414.20001220703</ele>
        <time>2012-10-30T14:28:19Z</time>
      </trkpt>
      <trkpt lat="43.37845" lon="6.13568">
        <ele>414.20001220703</ele>
        <time>2012-10-30T14:28:29Z</time>
      </trkpt>
      <trkpt lat="43.37834" lon="6.13572">
        <ele>414.20001220703</ele>
        <time>2012-10-30T14:28:35Z</time>
      </trkpt>
      <trkpt lat="43.37812" lon="6.13569">
        <ele>414.20001220703</ele>
        <time>2012-10-30T14:28:42Z</time>
      </trkpt>
      <trkpt lat="43.37775" lon="6.13584">
        <ele>414.20001220703</ele>
        <time>2012-10-30T14:28:51Z</time>
      </trkpt>
      <trkpt lat="43.37751" lon="6.13611">
        <ele>412.20001220703</ele>
        <time>2012-10-30T14:29:06Z</time>
      </trkpt>
      <trkpt lat="43.37732" lon="6.13625">
        <ele>412.20001220703</ele>
        <time>2012-10-30T14:29:11Z</time>
      </trkpt>
      <trkpt lat="43.37708" lon="6.1366">
        <ele>409.20001220703</ele>
        <time>2012-10-30T14:29:17Z</time>
      </trkpt>
      <trkpt lat="43.3769" lon="6.13679">
        <ele>407.20001220703</ele>
        <time>2012-10-30T14:29:21Z</time>
      </trkpt>
      <trkpt lat="43.37686" lon="6.1368">
        <ele>406.60000610352</ele>
        <time>2012-10-30T14:29:22Z</time>
      </trkpt>
      <trkpt lat="43.37669" lon="6.13658">
        <ele>403</ele>
        <time>2012-10-30T14:29:27Z</time>
      </trkpt>
      <trkpt lat="43.3765" lon="6.13617">
        <ele>398.79998779297</ele>
        <time>2012-10-30T14:29:34Z</time>
      </trkpt>
      <trkpt lat="43.37629" lon="6.13557">
        <ele>392.20001220703</ele>
        <time>2012-10-30T14:29:43Z</time>
      </trkpt>
      <trkpt lat="43.37614" lon="6.135">
        <ele>386.60000610352</ele>
        <time>2012-10-30T14:29:50Z</time>
      </trkpt>
      <trkpt lat="43.37606" lon="6.13481">
        <ele>383.79998779297</ele>
        <time>2012-10-30T14:29:53Z</time>
      </trkpt>
      <trkpt lat="43.376" lon="6.13468">
        <ele>381.60000610352</ele>
        <time>2012-10-30T14:29:56Z</time>
      </trkpt>
      <trkpt lat="43.37595" lon="6.13466">
        <ele>380.20001220703</ele>
        <time>2012-10-30T14:29:58Z</time>
      </trkpt>
      <trkpt lat="43.3759" lon="6.1347">
        <ele>378.79998779297</ele>
        <time>2012-10-30T14:30:00Z</time>
      </trkpt>
      <trkpt lat="43.37585" lon="6.13482">
        <ele>377</ele>
        <time>2012-10-30T14:30:03Z</time>
      </trkpt>
      <trkpt lat="43.37573" lon="6.13514">
        <ele>374.60000610352</ele>
        <time>2012-10-30T14:30:09Z</time>
      </trkpt>
      <trkpt lat="43.37568" lon="6.13518">
        <ele>373.79998779297</ele>
        <time>2012-10-30T14:30:11Z</time>
      </trkpt>
      <trkpt lat="43.37564" lon="6.13514">
        <ele>373</ele>
        <time>2012-10-30T14:30:13Z</time>
      </trkpt>
      <trkpt lat="43.37561" lon="6.13495">
        <ele>370.60000610352</ele>
        <time>2012-10-30T14:30:17Z</time>
      </trkpt>
      <trkpt lat="43.37551" lon="6.1347">
        <ele>367.79998779297</ele>
        <time>2012-10-30T14:30:23Z</time>
      </trkpt>
      <trkpt lat="43.37541" lon="6.13462">
        <ele>366.20001220703</ele>
        <time>2012-10-30T14:30:26Z</time>
      </trkpt>
      <trkpt lat="43.37532" lon="6.13463">
        <ele>364</ele>
        <time>2012-10-30T14:30:29Z</time>
      </trkpt>
      <trkpt lat="43.3753" lon="6.13464">
        <ele>363.39999389648</ele>
        <time>2012-10-30T14:30:30Z</time>
      </trkpt>
      <trkpt lat="43.37526" lon="6.13471">
        <ele>360.79998779297</ele>
        <time>2012-10-30T14:30:34Z</time>
      </trkpt>
      <trkpt lat="43.37526" lon="6.13471">
        <ele>359.60000610352</ele>
        <time>2012-10-30T14:30:53Z</time>
      </trkpt>
      <trkpt lat="43.37524" lon="6.13479">
        <ele>359.60000610352</ele>
        <time>2012-10-30T14:30:59Z</time>
      </trkpt>
      <trkpt lat="43.37531" lon="6.13519">
        <ele>359.60000610352</ele>
        <time>2012-10-30T14:31:15Z</time>
      </trkpt>
      <trkpt lat="43.3753" lon="6.13546">
        <ele>361.60000610352</ele>
        <time>2012-10-30T14:31:24Z</time>
      </trkpt>
      <trkpt lat="43.37532" lon="6.13562">
        <ele>361.60000610352</ele>
        <time>2012-10-30T14:31:31Z</time>
      </trkpt>
      <trkpt lat="43.37552" lon="6.13633">
        <ele>364.79998779297</ele>
        <time>2012-10-30T14:31:59Z</time>
      </trkpt>
      <trkpt lat="43.37553" lon="6.13639">
        <ele>365.60000610352</ele>
        <time>2012-10-30T14:32:01Z</time>
      </trkpt>
      <trkpt lat="43.37556" lon="6.13683">
        <ele>365.60000610352</ele>
        <time>2012-10-30T14:32:16Z</time>
      </trkpt>
      <trkpt lat="43.37558" lon="6.13702">
        <ele>365.60000610352</ele>
        <time>2012-10-30T14:32:23Z</time>
      </trkpt>
      <trkpt lat="43.37569" lon="6.13782">
        <ele>371.39999389648</ele>
        <time>2012-10-30T14:32:56Z</time>
      </trkpt>
      <trkpt lat="43.37571" lon="6.13801">
        <ele>371.79998779297</ele>
        <time>2012-10-30T14:33:03Z</time>
      </trkpt>
      <trkpt lat="43.37561" lon="6.13898">
        <ele>371.79998779297</ele>
        <time>2012-10-30T14:33:36Z</time>
      </trkpt>
      <trkpt lat="43.37556" lon="6.13917">
        <ele>374</ele>
        <time>2012-10-30T14:33:43Z</time>
      </trkpt>
      <trkpt lat="43.3755" lon="6.13941">
        <ele>374</ele>
        <time>2012-10-30T14:33:51Z</time>
      </trkpt>
      <trkpt lat="43.37537" lon="6.13975">
        <ele>375.60000610352</ele>
        <time>2012-10-30T14:34:03Z</time>
      </trkpt>
      <trkpt lat="43.37534" lon="6.14015">
        <ele>376.39999389648</ele>
        <time>2012-10-30T14:34:16Z</time>
      </trkpt>
      <trkpt lat="43.37519" lon="6.14056">
        <ele>378</ele>
        <time>2012-10-30T14:34:32Z</time>
      </trkpt>
      <trkpt lat="43.37517" lon="6.1407">
        <ele>379.39999389648</ele>
        <time>2012-10-30T14:34:37Z</time>
      </trkpt>
      <trkpt lat="43.37513" lon="6.14101">
        <ele>380.60000610352</ele>
        <time>2012-10-30T14:34:50Z</time>
      </trkpt>
      <trkpt lat="43.37494" lon="6.14134">
        <ele>382.60000610352</ele>
        <time>2012-10-30T14:35:07Z</time>
      </trkpt>
      <trkpt lat="43.37489" lon="6.14138">
        <ele>383.79998779297</ele>
        <time>2012-10-30T14:35:10Z</time>
      </trkpt>
      <trkpt lat="43.37474" lon="6.14158">
        <ele>386.39999389648</ele>
        <time>2012-10-30T14:35:23Z</time>
      </trkpt>
      <trkpt lat="43.37457" lon="6.14162">
        <ele>387.20001220703</ele>
        <time>2012-10-30T14:35:34Z</time>
      </trkpt>
      <trkpt lat="43.37447" lon="6.14171">
        <ele>388.39999389648</ele>
        <time>2012-10-30T14:35:42Z</time>
      </trkpt>
      <trkpt lat="43.37423" lon="6.14183">
        <ele>392</ele>
        <time>2012-10-30T14:35:59Z</time>
      </trkpt>
      <trkpt lat="43.37423" lon="6.14183">
        <ele>392.79998779297</ele>
        <time>2012-10-30T14:36:08Z</time>
      </trkpt>
      <trkpt lat="43.3742" lon="6.14184">
        <ele>392.79998779297</ele>
        <time>2012-10-30T14:36:13Z</time>
      </trkpt>
      <trkpt lat="43.374" lon="6.14193">
        <ele>396.39999389648</ele>
        <time>2012-10-30T14:36:30Z</time>
      </trkpt>
      <trkpt lat="43.37384" lon="6.14193">
        <ele>397.20001220703</ele>
        <time>2012-10-30T14:36:42Z</time>
      </trkpt>
      <trkpt lat="43.37381" lon="6.14193">
        <ele>397.20001220703</ele>
        <time>2012-10-30T14:36:44Z</time>
      </trkpt>
      <trkpt lat="43.37374" lon="6.14199">
        <ele>398</ele>
        <time>2012-10-30T14:36:50Z</time>
      </trkpt>
      <trkpt lat="43.37356" lon="6.14233">
        <ele>401.39999389648</ele>
        <time>2012-10-30T14:37:10Z</time>
      </trkpt>
      <trkpt lat="43.3735" lon="6.14241">
        <ele>401.39999389648</ele>
        <time>2012-10-30T14:37:15Z</time>
      </trkpt>
      <trkpt lat="43.37319" lon="6.14277">
        <ele>400</ele>
        <time>2012-10-30T14:37:28Z</time>
      </trkpt>
      <trkpt lat="43.37313" lon="6.14286">
        <ele>399</ele>
        <time>2012-10-30T14:37:30Z</time>
      </trkpt>
      <trkpt lat="43.37289" lon="6.14301">
        <ele>395.60000610352</ele>
        <time>2012-10-30T14:37:35Z</time>
      </trkpt>
      <trkpt lat="43.37269" lon="6.14319">
        <ele>391.60000610352</ele>
        <time>2012-10-30T14:37:39Z</time>
      </trkpt>
      <trkpt lat="43.37264" lon="6.14322">
        <ele>390.79998779297</ele>
        <time>2012-10-30T14:37:40Z</time>
      </trkpt>
      <trkpt lat="43.37259" lon="6.14322">
        <ele>390.20001220703</ele>
        <time>2012-10-30T14:37:41Z</time>
      </trkpt>
      <trkpt lat="43.37243" lon="6.14317">
        <ele>387.79998779297</ele>
        <time>2012-10-30T14:37:45Z</time>
      </trkpt>
      <trkpt lat="43.37218" lon="6.14327">
        <ele>385.60000610352</ele>
        <time>2012-10-30T14:37:51Z</time>
      </trkpt>
      <trkpt lat="43.37197" lon="6.14344">
        <ele>385.20001220703</ele>
        <time>2012-10-30T14:37:57Z</time>
      </trkpt>
      <trkpt lat="43.37189" lon="6.14348">
        <ele>384.20001220703</ele>
        <time>2012-10-30T14:37:59Z</time>
      </trkpt>
      <trkpt lat="43.37172" lon="6.14373">
        <ele>383.20001220703</ele>
        <time>2012-10-30T14:38:09Z</time>
      </trkpt>
      <trkpt lat="43.37168" lon="6.14374">
        <ele>383.20001220703</ele>
        <time>2012-10-30T14:38:11Z</time>
      </trkpt>
      <trkpt lat="43.37156" lon="6.14369">
        <ele>383.20001220703</ele>
        <time>2012-10-30T14:38:16Z</time>
      </trkpt>
      <trkpt lat="43.37142" lon="6.14371">
        <ele>383.20001220703</ele>
        <time>2012-10-30T14:38:22Z</time>
      </trkpt>
      <trkpt lat="43.3713" lon="6.14369">
        <ele>383.20001220703</ele>
        <time>2012-10-30T14:38:28Z</time>
      </trkpt>
      <trkpt lat="43.37107" lon="6.14357">
        <ele>383.20001220703</ele>
        <time>2012-10-30T14:38:38Z</time>
      </trkpt>
      <trkpt lat="43.37099" lon="6.14351">
        <ele>383.20001220703</ele>
        <time>2012-10-30T14:38:41Z</time>
      </trkpt>
      <trkpt lat="43.3709" lon="6.14337">
        <ele>382</ele>
        <time>2012-10-30T14:38:46Z</time>
      </trkpt>
      <trkpt lat="43.37074" lon="6.14286">
        <ele>379.60000610352</ele>
        <time>2012-10-30T14:38:56Z</time>
      </trkpt>
      <trkpt lat="43.37058" lon="6.14207">
        <ele>378.79998779297</ele>
        <time>2012-10-30T14:39:12Z</time>
      </trkpt>
      <trkpt lat="43.3703" lon="6.14157">
        <ele>377.20001220703</ele>
        <time>2012-10-30T14:39:26Z</time>
      </trkpt>
      <trkpt lat="43.37016" lon="6.14129">
        <ele>376.79998779297</ele>
        <time>2012-10-30T14:39:31Z</time>
      </trkpt>
      <trkpt lat="43.36996" lon="6.14106">
        <ele>375</ele>
        <time>2012-10-30T14:39:36Z</time>
      </trkpt>
      <trkpt lat="43.3697" lon="6.141">
        <ele>375</ele>
        <time>2012-10-30T14:39:42Z</time>
      </trkpt>
      <trkpt lat="43.36958" lon="6.14103">
        <ele>375</ele>
        <time>2012-10-30T14:39:45Z</time>
      </trkpt>
      <trkpt lat="43.36935" lon="6.14119">
        <ele>375</ele>
        <time>2012-10-30T14:39:53Z</time>
      </trkpt>
      <trkpt lat="43.36914" lon="6.14112">
        <ele>375</ele>
        <time>2012-10-30T14:40:00Z</time>
      </trkpt>
      <trkpt lat="43.36897" lon="6.14121">
        <ele>375</ele>
        <time>2012-10-30T14:40:05Z</time>
      </trkpt>
      <trkpt lat="43.36885" lon="6.14111">
        <ele>375</ele>
        <time>2012-10-30T14:40:08Z</time>
      </trkpt>
      <trkpt lat="43.36873" lon="6.14058">
        <ele>373.20001220703</ele>
        <time>2012-10-30T14:40:15Z</time>
      </trkpt>
      <trkpt lat="43.36866" lon="6.14037">
        <ele>371.60000610352</ele>
        <time>2012-10-30T14:40:18Z</time>
      </trkpt>
      <trkpt lat="43.3686" lon="6.13987">
        <ele>366.79998779297</ele>
        <time>2012-10-30T14:40:25Z</time>
      </trkpt>
      <trkpt lat="43.36833" lon="6.13959">
        <ele>363.20001220703</ele>
        <time>2012-10-30T14:40:33Z</time>
      </trkpt>
      <trkpt lat="43.36826" lon="6.13961">
        <ele>363.20001220703</ele>
        <time>2012-10-30T14:40:36Z</time>
      </trkpt>
      <trkpt lat="43.36823" lon="6.13975">
        <ele>363.20001220703</ele>
        <time>2012-10-30T14:40:41Z</time>
      </trkpt>
      <trkpt lat="43.36819" lon="6.1398">
        <ele>363.20001220703</ele>
        <time>2012-10-30T14:40:44Z</time>
      </trkpt>
      <trkpt lat="43.36796" lon="6.13993">
        <ele>365.39999389648</ele>
        <time>2012-10-30T14:40:57Z</time>
      </trkpt>
      <trkpt lat="43.36786" lon="6.13998">
        <ele>365.39999389648</ele>
        <time>2012-10-30T14:41:03Z</time>
      </trkpt>
      <trkpt lat="43.36772" lon="6.14014">
        <ele>367.39999389648</ele>
        <time>2012-10-30T14:41:13Z</time>
      </trkpt>
      <trkpt lat="43.36762" lon="6.14017">
        <ele>369.39999389648</ele>
        <time>2012-10-30T14:41:19Z</time>
      </trkpt>
      <trkpt lat="43.36748" lon="6.14016">
        <ele>369.39999389648</ele>
        <time>2012-10-30T14:41:28Z</time>
      </trkpt>
      <trkpt lat="43.36725" lon="6.14004">
        <ele>369.39999389648</ele>
        <time>2012-10-30T14:41:42Z</time>
      </trkpt>
      <trkpt lat="43.36716" lon="6.14004">
        <ele>369.79998779297</ele>
        <time>2012-10-30T14:41:48Z</time>
      </trkpt>
      <trkpt lat="43.36694" lon="6.14034">
        <ele>371.39999389648</ele>
        <time>2012-10-30T14:42:00Z</time>
      </trkpt>
      <trkpt lat="43.36683" lon="6.14043">
        <ele>371.39999389648</ele>
        <time>2012-10-30T14:42:05Z</time>
      </trkpt>
      <trkpt lat="43.36674" lon="6.14061">
        <ele>371.39999389648</ele>
        <time>2012-10-30T14:42:11Z</time>
      </trkpt>
      <trkpt lat="43.36668" lon="6.14083">
        <ele>371.39999389648</ele>
        <time>2012-10-30T14:42:17Z</time>
      </trkpt>
      <trkpt lat="43.36664" lon="6.14135">
        <ele>371.39999389648</ele>
        <time>2012-10-30T14:42:33Z</time>
      </trkpt>
      <trkpt lat="43.36666" lon="6.14162">
        <ele>372.39999389648</ele>
        <time>2012-10-30T14:42:42Z</time>
      </trkpt>
      <trkpt lat="43.36675" lon="6.14196">
        <ele>375.60000610352</ele>
        <time>2012-10-30T14:42:55Z</time>
      </trkpt>
      <trkpt lat="43.36679" lon="6.1424">
        <ele>375.60000610352</ele>
        <time>2012-10-30T14:43:09Z</time>
      </trkpt>
      <trkpt lat="43.36679" lon="6.14266">
        <ele>377.39999389648</ele>
        <time>2012-10-30T14:43:18Z</time>
      </trkpt>
      <trkpt lat="43.36657" lon="6.14325">
        <ele>377.79998779297</ele>
        <time>2012-10-30T14:43:41Z</time>
      </trkpt>
      <trkpt lat="43.36656" lon="6.1435">
        <ele>378.60000610352</ele>
        <time>2012-10-30T14:43:51Z</time>
      </trkpt>
      <trkpt lat="43.36655" lon="6.1436">
        <ele>379.79998779297</ele>
        <time>2012-10-30T14:43:55Z</time>
      </trkpt>
      <trkpt lat="43.36648" lon="6.14374">
        <ele>379.79998779297</ele>
        <time>2012-10-30T14:44:01Z</time>
      </trkpt>
      <trkpt lat="43.36617" lon="6.1441">
        <ele>382</ele>
        <time>2012-10-30T14:44:22Z</time>
      </trkpt>
      <trkpt lat="43.36601" lon="6.14445">
        <ele>384</ele>
        <time>2012-10-30T14:44:40Z</time>
      </trkpt>
      <trkpt lat="43.36599" lon="6.14453">
        <ele>384.39999389648</ele>
        <time>2012-10-30T14:44:44Z</time>
      </trkpt>
      <trkpt lat="43.36594" lon="6.14459">
        <ele>386</ele>
        <time>2012-10-30T14:44:48Z</time>
      </trkpt>
      <trkpt lat="43.3659" lon="6.1446">
        <ele>386</ele>
        <time>2012-10-30T14:44:50Z</time>
      </trkpt>
      <trkpt lat="43.36584" lon="6.14447">
        <ele>386</ele>
        <time>2012-10-30T14:44:55Z</time>
      </trkpt>
      <trkpt lat="43.36582" lon="6.14424">
        <ele>386</ele>
        <time>2012-10-30T14:45:04Z</time>
      </trkpt>
      <trkpt lat="43.3658" lon="6.14405">
        <ele>386.79998779297</ele>
        <time>2012-10-30T14:45:12Z</time>
      </trkpt>
      <trkpt lat="43.36568" lon="6.14394">
        <ele>388.39999389648</ele>
        <time>2012-10-30T14:45:19Z</time>
      </trkpt>
      <trkpt lat="43.36556" lon="6.14386">
        <ele>391</ele>
        <time>2012-10-30T14:45:27Z</time>
      </trkpt>
      <trkpt lat="43.36538" lon="6.1438">
        <ele>394.39999389648</ele>
        <time>2012-10-30T14:45:41Z</time>
      </trkpt>
      <trkpt lat="43.36531" lon="6.14384">
        <ele>396.20001220703</ele>
        <time>2012-10-30T14:45:47Z</time>
      </trkpt>
      <trkpt lat="43.36536" lon="6.14404">
        <ele>396.60000610352</ele>
        <time>2012-10-30T14:46:01Z</time>
      </trkpt>
      <trkpt lat="43.36543" lon="6.14422">
        <ele>397.79998779297</ele>
        <time>2012-10-30T14:46:11Z</time>
      </trkpt>
      <trkpt lat="43.36546" lon="6.1445">
        <ele>398.60000610352</ele>
        <time>2012-10-30T14:46:23Z</time>
      </trkpt>
      <trkpt lat="43.36546" lon="6.14454">
        <ele>398.60000610352</ele>
        <time>2012-10-30T14:46:25Z</time>
      </trkpt>
      <trkpt lat="43.36531" lon="6.14501">
        <ele>398.60000610352</ele>
        <time>2012-10-30T14:46:46Z</time>
      </trkpt>
      <trkpt lat="43.36532" lon="6.14538">
        <ele>399.39999389648</ele>
        <time>2012-10-30T14:47:01Z</time>
      </trkpt>
      <trkpt lat="43.36532" lon="6.1462">
        <ele>405</ele>
        <time>2012-10-30T14:47:35Z</time>
      </trkpt>
      <trkpt lat="43.3653" lon="6.14649">
        <ele>405</ele>
        <time>2012-10-30T14:47:47Z</time>
      </trkpt>
      <trkpt lat="43.36525" lon="6.14665">
        <ele>407</ele>
        <time>2012-10-30T14:47:52Z</time>
      </trkpt>
      <trkpt lat="43.36522" lon="6.14677">
        <ele>408.79998779297</ele>
        <time>2012-10-30T14:47:59Z</time>
      </trkpt>
      <trkpt lat="43.36523" lon="6.14719">
        <ele>412.79998779297</ele>
        <time>2012-10-30T14:48:24Z</time>
      </trkpt>
      <trkpt lat="43.3652" lon="6.14775">
        <ele>417.39999389648</ele>
        <time>2012-10-30T14:48:59Z</time>
      </trkpt>
      <trkpt lat="43.36522" lon="6.14813">
        <ele>421.39999389648</ele>
        <time>2012-10-30T14:49:24Z</time>
      </trkpt>
      <trkpt lat="43.36532" lon="6.14855">
        <ele>425</ele>
        <time>2012-10-30T14:49:49Z</time>
      </trkpt>
      <trkpt lat="43.36535" lon="6.14861">
        <ele>425.79998779297</ele>
        <time>2012-10-30T14:49:52Z</time>
      </trkpt>
      <trkpt lat="43.36537" lon="6.14885">
        <ele>425.79998779297</ele>
        <time>2012-10-30T14:50:04Z</time>
      </trkpt>
      <trkpt lat="43.36542" lon="6.14912">
        <ele>428</ele>
        <time>2012-10-30T14:50:17Z</time>
      </trkpt>
      <trkpt lat="43.36544" lon="6.14947">
        <ele>428</ele>
        <time>2012-10-30T14:50:29Z</time>
      </trkpt>
      <trkpt lat="43.36555" lon="6.15028">
        <ele>428</ele>
        <time>2012-10-30T14:50:51Z</time>
      </trkpt>
      <trkpt lat="43.36556" lon="6.15076">
        <ele>428</ele>
        <time>2012-10-30T14:51:04Z</time>
      </trkpt>
      <trkpt lat="43.36554" lon="6.15124">
        <ele>428.39999389648</ele>
        <time>2012-10-30T14:51:18Z</time>
      </trkpt>
      <trkpt lat="43.36555" lon="6.15136">
        <ele>430</ele>
        <time>2012-10-30T14:51:22Z</time>
      </trkpt>
      <trkpt lat="43.36557" lon="6.15152">
        <ele>430</ele>
        <time>2012-10-30T14:51:27Z</time>
      </trkpt>
      <trkpt lat="43.36552" lon="6.152">
        <ele>432.20001220703</ele>
        <time>2012-10-30T14:51:43Z</time>
      </trkpt>
      <trkpt lat="43.36544" lon="6.1522">
        <ele>432.20001220703</ele>
        <time>2012-10-30T14:51:52Z</time>
      </trkpt>
      <trkpt lat="43.36514" lon="6.15245">
        <ele>435.39999389648</ele>
        <time>2012-10-30T14:52:11Z</time>
      </trkpt>
      <trkpt lat="43.36511" lon="6.15249">
        <ele>436.20001220703</ele>
        <time>2012-10-30T14:52:14Z</time>
      </trkpt>
      <trkpt lat="43.36495" lon="6.15271">
        <ele>436.20001220703</ele>
        <time>2012-10-30T14:52:27Z</time>
      </trkpt>
      <trkpt lat="43.36484" lon="6.15301">
        <ele>436.20001220703</ele>
        <time>2012-10-30T14:52:37Z</time>
      </trkpt>
      <trkpt lat="43.36483" lon="6.15306">
        <ele>436.60000610352</ele>
        <time>2012-10-30T14:52:39Z</time>
      </trkpt>
      <trkpt lat="43.36476" lon="6.15338">
        <ele>438.60000610352</ele>
        <time>2012-10-30T14:52:52Z</time>
      </trkpt>
      <trkpt lat="43.36433" lon="6.15351">
        <ele>442.39999389648</ele>
        <time>2012-10-30T14:53:16Z</time>
      </trkpt>
      <trkpt lat="43.36428" lon="6.15356">
        <ele>442.79998779297</ele>
        <time>2012-10-30T14:53:19Z</time>
      </trkpt>
      <trkpt lat="43.36422" lon="6.15366">
        <ele>444</ele>
        <time>2012-10-30T14:53:22Z</time>
      </trkpt>
      <trkpt lat="43.36404" lon="6.15401">
        <ele>444.39999389648</ele>
        <time>2012-10-30T14:53:34Z</time>
      </trkpt>
      <trkpt lat="43.36396" lon="6.15413">
        <ele>444.39999389648</ele>
        <time>2012-10-30T14:53:39Z</time>
      </trkpt>
      <trkpt lat="43.36374" lon="6.15441">
        <ele>444.39999389648</ele>
        <time>2012-10-30T14:53:52Z</time>
      </trkpt>
      <trkpt lat="43.36353" lon="6.1546">
        <ele>444.39999389648</ele>
        <time>2012-10-30T14:54:01Z</time>
      </trkpt>
      <trkpt lat="43.36312" lon="6.15493">
        <ele>444.39999389648</ele>
        <time>2012-10-30T14:54:17Z</time>
      </trkpt>
      <trkpt lat="43.36299" lon="6.155">
        <ele>444.39999389648</ele>
        <time>2012-10-30T14:54:22Z</time>
      </trkpt>
      <trkpt lat="43.36289" lon="6.15514">
        <ele>444.39999389648</ele>
        <time>2012-10-30T14:54:28Z</time>
      </trkpt>
      <trkpt lat="43.36275" lon="6.15559">
        <ele>442.20001220703</ele>
        <time>2012-10-30T14:54:40Z</time>
      </trkpt>
      <trkpt lat="43.36274" lon="6.15574">
        <ele>442.20001220703</ele>
        <time>2012-10-30T14:54:45Z</time>
      </trkpt>
      <trkpt lat="43.36276" lon="6.15605">
        <ele>443</ele>
        <time>2012-10-30T14:54:54Z</time>
      </trkpt>
      <trkpt lat="43.3627" lon="6.15646">
        <ele>444.20001220703</ele>
        <time>2012-10-30T14:55:08Z</time>
      </trkpt>
      <trkpt lat="43.36241" lon="6.15682">
        <ele>444.20001220703</ele>
        <time>2012-10-30T14:55:23Z</time>
      </trkpt>
      <trkpt lat="43.36238" lon="6.15707">
        <ele>444.20001220703</ele>
        <time>2012-10-30T14:55:29Z</time>
      </trkpt>
      <trkpt lat="43.36239" lon="6.15726">
        <ele>444.20001220703</ele>
        <time>2012-10-30T14:55:33Z</time>
      </trkpt>
      <trkpt lat="43.36239" lon="6.158">
        <ele>446.39999389648</ele>
        <time>2012-10-30T14:55:54Z</time>
      </trkpt>
      <trkpt lat="43.36236" lon="6.15817">
        <ele>446.39999389648</ele>
        <time>2012-10-30T14:56:00Z</time>
      </trkpt>
      <trkpt lat="43.36235" lon="6.15839">
        <ele>446.39999389648</ele>
        <time>2012-10-30T14:56:05Z</time>
      </trkpt>
      <trkpt lat="43.36229" lon="6.15859">
        <ele>446.39999389648</ele>
        <time>2012-10-30T14:56:10Z</time>
      </trkpt>
      <trkpt lat="43.36215" lon="6.15883">
        <ele>446.39999389648</ele>
        <time>2012-10-30T14:56:17Z</time>
      </trkpt>
      <trkpt lat="43.36218" lon="6.15901">
        <ele>446.39999389648</ele>
        <time>2012-10-30T14:56:21Z</time>
      </trkpt>
      <trkpt lat="43.36231" lon="6.15922">
        <ele>446.39999389648</ele>
        <time>2012-10-30T14:59:18Z</time>
      </trkpt>
      <trkpt lat="43.3623" lon="6.15952">
        <ele>446.39999389648</ele>
        <time>2012-10-30T14:59:27Z</time>
      </trkpt>
      <trkpt lat="43.36231" lon="6.15954">
        <ele>446.39999389648</ele>
        <time>2012-10-30T14:59:28Z</time>
      </trkpt>
      <trkpt lat="43.36237" lon="6.15979">
        <ele>446.39999389648</ele>
        <time>2012-10-30T14:59:38Z</time>
      </trkpt>
      <trkpt lat="43.36256" lon="6.16">
        <ele>445.20001220703</ele>
        <time>2012-10-30T14:59:48Z</time>
      </trkpt>
      <trkpt lat="43.36258" lon="6.16002">
        <ele>444.79998779297</ele>
        <time>2012-10-30T14:59:49Z</time>
      </trkpt>
      <trkpt lat="43.36272" lon="6.16032">
        <ele>444.39999389648</ele>
        <time>2012-10-30T14:59:59Z</time>
      </trkpt>
      <trkpt lat="43.36286" lon="6.16047">
        <ele>442.20001220703</ele>
        <time>2012-10-30T15:00:04Z</time>
      </trkpt>
      <trkpt lat="43.3629" lon="6.16051">
        <ele>441.20001220703</ele>
        <time>2012-10-30T15:00:07Z</time>
      </trkpt>
      <trkpt lat="43.36292" lon="6.1606">
        <ele>440</ele>
        <time>2012-10-30T15:00:11Z</time>
      </trkpt>
      <trkpt lat="43.36296" lon="6.1606">
        <ele>440</ele>
        <time>2012-10-30T15:00:13Z</time>
      </trkpt>
      <trkpt lat="43.36302" lon="6.16054">
        <ele>439.60000610352</ele>
        <time>2012-10-30T15:00:17Z</time>
      </trkpt>
      <trkpt lat="43.36314" lon="6.16055">
        <ele>437.20001220703</ele>
        <time>2012-10-30T15:00:24Z</time>
      </trkpt>
      <trkpt lat="43.36332" lon="6.16068">
        <ele>434.39999389648</ele>
        <time>2012-10-30T15:00:31Z</time>
      </trkpt>
      <trkpt lat="43.36349" lon="6.16065">
        <ele>430.60000610352</ele>
        <time>2012-10-30T15:00:37Z</time>
      </trkpt>
      <trkpt lat="43.36359" lon="6.16072">
        <ele>429</ele>
        <time>2012-10-30T15:00:40Z</time>
      </trkpt>
      <trkpt lat="43.36369" lon="6.16077">
        <ele>426.60000610352</ele>
        <time>2012-10-30T15:00:45Z</time>
      </trkpt>
      <trkpt lat="43.36391" lon="6.16096">
        <ele>423.20001220703</ele>
        <time>2012-10-30T15:00:52Z</time>
      </trkpt>
      <trkpt lat="43.36407" lon="6.16101">
        <ele>420.60000610352</ele>
        <time>2012-10-30T15:00:57Z</time>
      </trkpt>
      <trkpt lat="43.36414" lon="6.16104">
        <ele>419.60000610352</ele>
        <time>2012-10-30T15:00:59Z</time>
      </trkpt>
      <trkpt lat="43.3642" lon="6.16111">
        <ele>417.39999389648</ele>
        <time>2012-10-30T15:01:02Z</time>
      </trkpt>
      <trkpt lat="43.3643" lon="6.16102">
        <ele>415.20001220703</ele>
        <time>2012-10-30T15:01:06Z</time>
      </trkpt>
      <trkpt lat="43.36441" lon="6.16095">
        <ele>412</ele>
        <time>2012-10-30T15:01:12Z</time>
      </trkpt>
      <trkpt lat="43.36444" lon="6.16092">
        <ele>410.20001220703</ele>
        <time>2012-10-30T15:01:15Z</time>
      </trkpt>
      <trkpt lat="43.36445" lon="6.16092">
        <ele>409.60000610352</ele>
        <time>2012-10-30T15:01:16Z</time>
      </trkpt>
      <trkpt lat="43.36461" lon="6.16091">
        <ele>405.39999389648</ele>
        <time>2012-10-30T15:01:24Z</time>
      </trkpt>
      <trkpt lat="43.36468" lon="6.16092">
        <ele>402.20001220703</ele>
        <time>2012-10-30T15:01:29Z</time>
      </trkpt>
      <trkpt lat="43.36477" lon="6.16086">
        <ele>400</ele>
        <time>2012-10-30T15:01:34Z</time>
      </trkpt>
      <trkpt lat="43.36482" lon="6.16092">
        <ele>397</ele>
        <time>2012-10-30T15:01:40Z</time>
      </trkpt>
      <trkpt lat="43.36483" lon="6.16093">
        <ele>397</ele>
        <time>2012-10-30T15:01:42Z</time>
      </trkpt>
      <trkpt lat="43.36483" lon="6.16095">
        <ele>397</ele>
        <time>2012-10-30T15:01:48Z</time>
      </trkpt>
      <trkpt lat="43.36483" lon="6.16095">
        <ele>395</ele>
        <time>2012-10-30T15:02:16Z</time>
      </trkpt>
      <trkpt lat="43.36481" lon="6.16104">
        <ele>395</ele>
        <time>2012-10-30T15:02:53Z</time>
      </trkpt>
      <trkpt lat="43.36485" lon="6.16132">
        <ele>393.79998779297</ele>
        <time>2012-10-30T15:03:04Z</time>
      </trkpt>
      <trkpt lat="43.36498" lon="6.16178">
        <ele>388</ele>
        <time>2012-10-30T15:03:13Z</time>
      </trkpt>
      <trkpt lat="43.36512" lon="6.1623">
        <ele>382.20001220703</ele>
        <time>2012-10-30T15:03:23Z</time>
      </trkpt>
      <trkpt lat="43.36519" lon="6.16248">
        <ele>380</ele>
        <time>2012-10-30T15:03:26Z</time>
      </trkpt>
      <trkpt lat="43.36523" lon="6.16276">
        <ele>376.39999389648</ele>
        <time>2012-10-30T15:03:30Z</time>
      </trkpt>
      <trkpt lat="43.36505" lon="6.1632">
        <ele>371.60000610352</ele>
        <time>2012-10-30T15:03:40Z</time>
      </trkpt>
      <trkpt lat="43.36499" lon="6.16326">
        <ele>370.39999389648</ele>
        <time>2012-10-30T15:03:42Z</time>
      </trkpt>
      <trkpt lat="43.36495" lon="6.16328">
        <ele>369.60000610352</ele>
        <time>2012-10-30T15:03:43Z</time>
      </trkpt>
      <trkpt lat="43.3648" lon="6.16333">
        <ele>367.60000610352</ele>
        <time>2012-10-30T15:03:47Z</time>
      </trkpt>
      <trkpt lat="43.36472" lon="6.16342">
        <ele>367</ele>
        <time>2012-10-30T15:03:50Z</time>
      </trkpt>
      <trkpt lat="43.36467" lon="6.16352">
        <ele>367</ele>
        <time>2012-10-30T15:03:52Z</time>
      </trkpt>
      <trkpt lat="43.36456" lon="6.16387">
        <ele>366.60000610352</ele>
        <time>2012-10-30T15:03:57Z</time>
      </trkpt>
      <trkpt lat="43.36449" lon="6.16429">
        <ele>364.79998779297</ele>
        <time>2012-10-30T15:04:02Z</time>
      </trkpt>
      <trkpt lat="43.36444" lon="6.16494">
        <ele>362.60000610352</ele>
        <time>2012-10-30T15:04:10Z</time>
      </trkpt>
      <trkpt lat="43.36457" lon="6.16534">
        <ele>360</ele>
        <time>2012-10-30T15:04:17Z</time>
      </trkpt>
      <trkpt lat="43.36456" lon="6.16611">
        <ele>352.79998779297</ele>
        <time>2012-10-30T15:04:27Z</time>
      </trkpt>
      <trkpt lat="43.36462" lon="6.16649">
        <ele>350</ele>
        <time>2012-10-30T15:04:31Z</time>
      </trkpt>
      <trkpt lat="43.36468" lon="6.16679">
        <ele>347.60000610352</ele>
        <time>2012-10-30T15:04:35Z</time>
      </trkpt>
      <trkpt lat="43.36462" lon="6.16737">
        <ele>341.60000610352</ele>
        <time>2012-10-30T15:04:44Z</time>
      </trkpt>
      <trkpt lat="43.36461" lon="6.16745">
        <ele>341.20001220703</ele>
        <time>2012-10-30T15:04:45Z</time>
      </trkpt>
      <trkpt lat="43.36451" lon="6.16784">
        <ele>338</ele>
        <time>2012-10-30T15:04:51Z</time>
      </trkpt>
      <trkpt lat="43.36451" lon="6.16787">
        <ele>337.60000610352</ele>
        <time>2012-10-30T15:04:52Z</time>
      </trkpt>
      <trkpt lat="43.36455" lon="6.1679">
        <ele>337.20001220703</ele>
        <time>2012-10-30T15:04:56Z</time>
      </trkpt>
      <trkpt lat="43.36455" lon="6.1679">
        <ele>335.39999389648</ele>
        <time>2012-10-30T15:05:03Z</time>
      </trkpt>
      <trkpt lat="43.36456" lon="6.16791">
        <ele>335.39999389648</ele>
        <time>2012-10-30T15:05:13Z</time>
      </trkpt>
      <trkpt lat="43.36465" lon="6.16798">
        <ele>335.39999389648</ele>
        <time>2012-10-30T15:05:25Z</time>
      </trkpt>
      <trkpt lat="43.36464" lon="6.16815">
        <ele>335.39999389648</ele>
        <time>2012-10-30T15:05:32Z</time>
      </trkpt>
      <trkpt lat="43.36467" lon="6.16824">
        <ele>335.39999389648</ele>
        <time>2012-10-30T15:05:38Z</time>
      </trkpt>
      <trkpt lat="43.36475" lon="6.16821">
        <ele>335.39999389648</ele>
        <time>2012-10-30T15:05:44Z</time>
      </trkpt>
      <trkpt lat="43.36475" lon="6.16813">
        <ele>337.20001220703</ele>
        <time>2012-10-30T15:05:49Z</time>
      </trkpt>
      <trkpt lat="43.3648" lon="6.16808">
        <ele>338.39999389648</ele>
        <time>2012-10-30T15:05:54Z</time>
      </trkpt>
      <trkpt lat="43.36493" lon="6.16812">
        <ele>342</ele>
        <time>2012-10-30T15:06:05Z</time>
      </trkpt>
      <trkpt lat="43.36498" lon="6.16811">
        <ele>342.79998779297</ele>
        <time>2012-10-30T15:06:09Z</time>
      </trkpt>
      <trkpt lat="43.36514" lon="6.16809">
        <ele>344</ele>
        <time>2012-10-30T15:06:19Z</time>
      </trkpt>
      <trkpt lat="43.36559" lon="6.168">
        <ele>348</ele>
        <time>2012-10-30T15:06:50Z</time>
      </trkpt>
      <trkpt lat="43.36606" lon="6.16807">
        <ele>352.20001220703</ele>
        <time>2012-10-30T15:07:23Z</time>
      </trkpt>
      <trkpt lat="43.36613" lon="6.16808">
        <ele>353.39999389648</ele>
        <time>2012-10-30T15:07:28Z</time>
      </trkpt>
      <trkpt lat="43.36638" lon="6.16807">
        <ele>356.60000610352</ele>
        <time>2012-10-30T15:07:49Z</time>
      </trkpt>
      <trkpt lat="43.36674" lon="6.16796">
        <ele>360.39999389648</ele>
        <time>2012-10-30T15:08:17Z</time>
      </trkpt>
      <trkpt lat="43.36686" lon="6.1678">
        <ele>364.39999389648</ele>
        <time>2012-10-30T15:08:31Z</time>
      </trkpt>
      <trkpt lat="43.36699" lon="6.16756">
        <ele>366.60000610352</ele>
        <time>2012-10-30T15:08:49Z</time>
      </trkpt>
      <trkpt lat="43.36712" lon="6.16714">
        <ele>370.60000610352</ele>
        <time>2012-10-30T15:09:16Z</time>
      </trkpt>
      <trkpt lat="43.36728" lon="6.16684">
        <ele>372.79998779297</ele>
        <time>2012-10-30T15:09:38Z</time>
      </trkpt>
      <trkpt lat="43.36729" lon="6.16682">
        <ele>372.79998779297</ele>
        <time>2012-10-30T15:09:39Z</time>
      </trkpt>
      <trkpt lat="43.36739" lon="6.16652">
        <ele>376</ele>
        <time>2012-10-30T15:09:57Z</time>
      </trkpt>
      <trkpt lat="43.36739" lon="6.16638">
        <ele>377.39999389648</ele>
        <time>2012-10-30T15:10:05Z</time>
      </trkpt>
      <trkpt lat="43.36741" lon="6.16617">
        <ele>380.79998779297</ele>
        <time>2012-10-30T15:10:19Z</time>
      </trkpt>
      <trkpt lat="43.36723" lon="6.16565">
        <ele>388.39999389648</ele>
        <time>2012-10-30T15:10:59Z</time>
      </trkpt>
      <trkpt lat="43.36721" lon="6.16562">
        <ele>389.20001220703</ele>
        <time>2012-10-30T15:11:01Z</time>
      </trkpt>
      <trkpt lat="43.36726" lon="6.16537">
        <ele>390.39999389648</ele>
        <time>2012-10-30T15:11:18Z</time>
      </trkpt>
      <trkpt lat="43.36739" lon="6.16513">
        <ele>392.39999389648</ele>
        <time>2012-10-30T15:11:35Z</time>
      </trkpt>
      <trkpt lat="43.36743" lon="6.16511">
        <ele>393.79998779297</ele>
        <time>2012-10-30T15:11:38Z</time>
      </trkpt>
      <trkpt lat="43.3675" lon="6.16493">
        <ele>393.79998779297</ele>
        <time>2012-10-30T15:11:49Z</time>
      </trkpt>
      <trkpt lat="43.36763" lon="6.16453">
        <ele>395.79998779297</ele>
        <time>2012-10-30T15:12:09Z</time>
      </trkpt>
      <trkpt lat="43.36767" lon="6.16445">
        <ele>396.20001220703</ele>
        <time>2012-10-30T15:12:13Z</time>
      </trkpt>
      <trkpt lat="43.36804" lon="6.16387">
        <ele>402.39999389648</ele>
        <time>2012-10-30T15:12:52Z</time>
      </trkpt>
      <trkpt lat="43.36805" lon="6.16385">
        <ele>402.79998779297</ele>
        <time>2012-10-30T15:12:53Z</time>
      </trkpt>
      <trkpt lat="43.36816" lon="6.1635">
        <ele>404</ele>
        <time>2012-10-30T15:13:09Z</time>
      </trkpt>
      <trkpt lat="43.36825" lon="6.16306">
        <ele>406</ele>
        <time>2012-10-30T15:13:30Z</time>
      </trkpt>
      <trkpt lat="43.36833" lon="6.16271">
        <ele>408.20001220703</ele>
        <time>2012-10-30T15:13:48Z</time>
      </trkpt>
      <trkpt lat="43.36834" lon="6.16268">
        <ele>408.60000610352</ele>
        <time>2012-10-30T15:13:50Z</time>
      </trkpt>
      <trkpt lat="43.36846" lon="6.16235">
        <ele>412.39999389648</ele>
        <time>2012-10-30T15:14:09Z</time>
      </trkpt>
      <trkpt lat="43.36852" lon="6.16229">
        <ele>414.39999389648</ele>
        <time>2012-10-30T15:14:15Z</time>
      </trkpt>
      <trkpt lat="43.36852" lon="6.16222">
        <ele>415.20001220703</ele>
        <time>2012-10-30T15:14:19Z</time>
      </trkpt>
      <trkpt lat="43.36852" lon="6.16219">
        <ele>416</ele>
        <time>2012-10-30T15:14:21Z</time>
      </trkpt>
      <trkpt lat="43.36864" lon="6.16202">
        <ele>416.39999389648</ele>
        <time>2012-10-30T15:14:37Z</time>
      </trkpt>
      <trkpt lat="43.36872" lon="6.16191">
        <ele>416.39999389648</ele>
        <time>2012-10-30T15:17:40Z</time>
      </trkpt>
      <trkpt lat="43.36874" lon="6.16185">
        <ele>416.39999389648</ele>
        <time>2012-10-30T15:17:45Z</time>
      </trkpt>
      <trkpt lat="43.36887" lon="6.16144">
        <ele>413.60000610352</ele>
        <time>2012-10-30T15:18:02Z</time>
      </trkpt>
      <trkpt lat="43.36893" lon="6.16129">
        <ele>412</ele>
        <time>2012-10-30T15:18:10Z</time>
      </trkpt>
      <trkpt lat="43.36917" lon="6.161">
        <ele>405.60000610352</ele>
        <time>2012-10-30T15:18:22Z</time>
      </trkpt>
      <trkpt lat="43.36929" lon="6.16083">
        <ele>402.79998779297</ele>
        <time>2012-10-30T15:18:26Z</time>
      </trkpt>
      <trkpt lat="43.36946" lon="6.1604">
        <ele>398.20001220703</ele>
        <time>2012-10-30T15:18:34Z</time>
      </trkpt>
      <trkpt lat="43.3697" lon="6.16034">
        <ele>395.79998779297</ele>
        <time>2012-10-30T15:18:41Z</time>
      </trkpt>
      <trkpt lat="43.36993" lon="6.16028">
        <ele>393.39999389648</ele>
        <time>2012-10-30T15:18:46Z</time>
      </trkpt>
      <trkpt lat="43.37023" lon="6.16015">
        <ele>390.79998779297</ele>
        <time>2012-10-30T15:18:55Z</time>
      </trkpt>
      <trkpt lat="43.37033" lon="6.16014">
        <ele>389.20001220703</ele>
        <time>2012-10-30T15:19:00Z</time>
      </trkpt>
      <trkpt lat="43.37066" lon="6.16023">
        <ele>389.20001220703</ele>
        <time>2012-10-30T15:19:14Z</time>
      </trkpt>
      <trkpt lat="43.37074" lon="6.16035">
        <ele>389.20001220703</ele>
        <time>2012-10-30T15:19:20Z</time>
      </trkpt>
      <trkpt lat="43.37086" lon="6.16044">
        <ele>388.79998779297</ele>
        <time>2012-10-30T15:19:24Z</time>
      </trkpt>
      <trkpt lat="43.37101" lon="6.16042">
        <ele>386.79998779297</ele>
        <time>2012-10-30T15:19:28Z</time>
      </trkpt>
      <trkpt lat="43.37104" lon="6.16043">
        <ele>386.39999389648</ele>
        <time>2012-10-30T15:19:29Z</time>
      </trkpt>
      <trkpt lat="43.37125" lon="6.16054">
        <ele>383.39999389648</ele>
        <time>2012-10-30T15:19:35Z</time>
      </trkpt>
      <trkpt lat="43.37151" lon="6.1606">
        <ele>381.20001220703</ele>
        <time>2012-10-30T15:19:41Z</time>
      </trkpt>
      <trkpt lat="43.37165" lon="6.1607">
        <ele>378.60000610352</ele>
        <time>2012-10-30T15:19:46Z</time>
      </trkpt>
      <trkpt lat="43.37182" lon="6.16057">
        <ele>377.60000610352</ele>
        <time>2012-10-30T15:19:51Z</time>
      </trkpt>
      <trkpt lat="43.37194" lon="6.16055">
        <ele>375.79998779297</ele>
        <time>2012-10-30T15:19:55Z</time>
      </trkpt>
      <trkpt lat="43.37202" lon="6.16056">
        <ele>375.20001220703</ele>
        <time>2012-10-30T15:19:57Z</time>
      </trkpt>
      <trkpt lat="43.37212" lon="6.16064">
        <ele>373.39999389648</ele>
        <time>2012-10-30T15:20:02Z</time>
      </trkpt>
      <trkpt lat="43.37224" lon="6.16064">
        <ele>373.39999389648</ele>
        <time>2012-10-30T15:20:13Z</time>
      </trkpt>
      <trkpt lat="43.37224" lon="6.16064">
        <ele>373.39999389648</ele>
        <time>2012-10-30T15:20:16Z</time>
      </trkpt>
      <trkpt lat="43.37258" lon="6.16077">
        <ele>373.39999389648</ele>
        <time>2012-10-30T15:20:33Z</time>
      </trkpt>
      <trkpt lat="43.37289" lon="6.16083">
        <ele>371.60000610352</ele>
        <time>2012-10-30T15:20:41Z</time>
      </trkpt>
      <trkpt lat="43.37319" lon="6.16077">
        <ele>370.79998779297</ele>
        <time>2012-10-30T15:20:48Z</time>
      </trkpt>
      <trkpt lat="43.37324" lon="6.16077">
        <ele>370.39999389648</ele>
        <time>2012-10-30T15:20:49Z</time>
      </trkpt>
      <trkpt lat="43.37333" lon="6.16078">
        <ele>369.39999389648</ele>
        <time>2012-10-30T15:20:51Z</time>
      </trkpt>
      <trkpt lat="43.37367" lon="6.16086">
        <ele>368.60000610352</ele>
        <time>2012-10-30T15:20:59Z</time>
      </trkpt>
      <trkpt lat="43.37403" lon="6.161">
        <ele>364.39999389648</ele>
        <time>2012-10-30T15:21:07Z</time>
      </trkpt>
      <trkpt lat="43.37421" lon="6.16111">
        <ele>363.79998779297</ele>
        <time>2012-10-30T15:21:11Z</time>
      </trkpt>
      <trkpt lat="43.37428" lon="6.1612">
        <ele>362.20001220703</ele>
        <time>2012-10-30T15:21:14Z</time>
      </trkpt>
      <trkpt lat="43.37432" lon="6.16123">
        <ele>360.79998779297</ele>
        <time>2012-10-30T15:21:17Z</time>
      </trkpt>
      <trkpt lat="43.37436" lon="6.16125">
        <ele>359.39999389648</ele>
        <time>2012-10-30T15:21:20Z</time>
      </trkpt>
      <trkpt lat="43.37447" lon="6.16128">
        <ele>358.79998779297</ele>
        <time>2012-10-30T15:21:23Z</time>
      </trkpt>
      <trkpt lat="43.37453" lon="6.16136">
        <ele>356.60000610352</ele>
        <time>2012-10-30T15:21:27Z</time>
      </trkpt>
      <trkpt lat="43.3746" lon="6.16133">
        <ele>354.39999389648</ele>
        <time>2012-10-30T15:21:31Z</time>
      </trkpt>
      <trkpt lat="43.37463" lon="6.16133">
        <ele>353.39999389648</ele>
        <time>2012-10-30T15:21:32Z</time>
      </trkpt>
      <trkpt lat="43.37462" lon="6.16133">
        <ele>350.60000610352</ele>
        <time>2012-10-30T15:22:00Z</time>
      </trkpt>
      <trkpt lat="43.37491" lon="6.16132">
        <ele>350</ele>
        <time>2012-10-30T15:22:13Z</time>
      </trkpt>
      <trkpt lat="43.375" lon="6.16117">
        <ele>348.20001220703</ele>
        <time>2012-10-30T15:22:18Z</time>
      </trkpt>
      <trkpt lat="43.37505" lon="6.16115">
        <ele>348.20001220703</ele>
        <time>2012-10-30T15:22:20Z</time>
      </trkpt>
      <trkpt lat="43.37515" lon="6.16082">
        <ele>344.60000610352</ele>
        <time>2012-10-30T15:22:29Z</time>
      </trkpt>
      <trkpt lat="43.37527" lon="6.16066">
        <ele>343.60000610352</ele>
        <time>2012-10-30T15:22:43Z</time>
      </trkpt>
      <trkpt lat="43.37576" lon="6.15999">
        <ele>341.60000610352</ele>
        <time>2012-10-30T15:23:03Z</time>
      </trkpt>
      <trkpt lat="43.37622" lon="6.15942">
        <ele>339</ele>
        <time>2012-10-30T15:23:20Z</time>
      </trkpt>
      <trkpt lat="43.37627" lon="6.15925">
        <ele>337.20001220703</ele>
        <time>2012-10-30T15:23:24Z</time>
      </trkpt>
      <trkpt lat="43.37635" lon="6.15915">
        <ele>337.20001220703</ele>
        <time>2012-10-30T15:23:27Z</time>
      </trkpt>
      <trkpt lat="43.37658" lon="6.15909">
        <ele>337.20001220703</ele>
        <time>2012-10-30T15:23:33Z</time>
      </trkpt>
      <trkpt lat="43.37664" lon="6.15902">
        <ele>336.79998779297</ele>
        <time>2012-10-30T15:23:35Z</time>
      </trkpt>
      <trkpt lat="43.37683" lon="6.15883">
        <ele>335</ele>
        <time>2012-10-30T15:23:42Z</time>
      </trkpt>
      <trkpt lat="43.37688" lon="6.15873">
        <ele>335</ele>
        <time>2012-10-30T15:23:46Z</time>
      </trkpt>
      <trkpt lat="43.37687" lon="6.15854">
        <ele>335</ele>
        <time>2012-10-30T15:23:52Z</time>
      </trkpt>
      <trkpt lat="43.37697" lon="6.1584">
        <ele>337.20001220703</ele>
        <time>2012-10-30T15:24:00Z</time>
      </trkpt>
      <trkpt lat="43.37693" lon="6.15829">
        <ele>337.20001220703</ele>
        <time>2012-10-30T15:24:06Z</time>
      </trkpt>
      <trkpt lat="43.37668" lon="6.15804">
        <ele>339.20001220703</ele>
        <time>2012-10-30T15:24:24Z</time>
      </trkpt>
      <trkpt lat="43.37645" lon="6.15796">
        <ele>340</ele>
        <time>2012-10-30T15:24:38Z</time>
      </trkpt>
      <trkpt lat="43.37643" lon="6.15797">
        <ele>340.39999389648</ele>
        <time>2012-10-30T15:24:39Z</time>
      </trkpt>
      <trkpt lat="43.3764" lon="6.15798">
        <ele>341.39999389648</ele>
        <time>2012-10-30T15:24:41Z</time>
      </trkpt>
      <trkpt lat="43.37624" lon="6.15794">
        <ele>342.20001220703</ele>
        <time>2012-10-30T15:24:53Z</time>
      </trkpt>
      <trkpt lat="43.37611" lon="6.15784">
        <ele>343.39999389648</ele>
        <time>2012-10-30T15:25:05Z</time>
      </trkpt>
      <trkpt lat="43.37602" lon="6.15785">
        <ele>343.39999389648</ele>
        <time>2012-10-30T15:25:10Z</time>
      </trkpt>
      <trkpt lat="43.37595" lon="6.15789">
        <ele>344.60000610352</ele>
        <time>2012-10-30T15:25:14Z</time>
      </trkpt>
      <trkpt lat="43.37587" lon="6.15804">
        <ele>345.60000610352</ele>
        <time>2012-10-30T15:25:23Z</time>
      </trkpt>
      <trkpt lat="43.3759" lon="6.15827">
        <ele>347.60000610352</ele>
        <time>2012-10-30T15:25:36Z</time>
      </trkpt>
      <trkpt lat="43.37586" lon="6.15867">
        <ele>349.60000610352</ele>
        <time>2012-10-30T15:25:52Z</time>
      </trkpt>
      <trkpt lat="43.37557" lon="6.15933">
        <ele>352.20001220703</ele>
        <time>2012-10-30T15:26:26Z</time>
      </trkpt>
      <trkpt lat="43.37553" lon="6.15938">
        <ele>353.39999389648</ele>
        <time>2012-10-30T15:26:29Z</time>
      </trkpt>
      <trkpt lat="43.37523" lon="6.15981">
        <ele>356</ele>
        <time>2012-10-30T15:27:00Z</time>
      </trkpt>
      <trkpt lat="43.37492" lon="6.16016">
        <ele>360.20001220703</ele>
        <time>2012-10-30T15:27:27Z</time>
      </trkpt>
      <trkpt lat="43.37481" lon="6.16026">
        <ele>360.20001220703</ele>
        <time>2012-10-30T15:27:35Z</time>
      </trkpt>
      <trkpt lat="43.3746" lon="6.16044">
        <ele>362.20001220703</ele>
        <time>2012-10-30T15:27:47Z</time>
      </trkpt>
      <trkpt lat="43.37449" lon="6.16045">
        <ele>362.20001220703</ele>
        <time>2012-10-30T15:27:54Z</time>
      </trkpt>
      <trkpt lat="43.37414" lon="6.16037">
        <ele>364.20001220703</ele>
        <time>2012-10-30T15:28:14Z</time>
      </trkpt>
      <trkpt lat="43.37384" lon="6.16037">
        <ele>366.39999389648</ele>
        <time>2012-10-30T15:28:31Z</time>
      </trkpt>
      <trkpt lat="43.37358" lon="6.16032">
        <ele>366.79998779297</ele>
        <time>2012-10-30T15:28:47Z</time>
      </trkpt>
      <trkpt lat="43.3733" lon="6.16035">
        <ele>368.39999389648</ele>
        <time>2012-10-30T15:29:03Z</time>
      </trkpt>
      <trkpt lat="43.37304" lon="6.16041">
        <ele>370.39999389648</ele>
        <time>2012-10-30T15:29:19Z</time>
      </trkpt>
      <trkpt lat="43.37271" lon="6.1604">
        <ele>371.20001220703</ele>
        <time>2012-10-30T15:29:38Z</time>
      </trkpt>
      <trkpt lat="43.37269" lon="6.1604">
        <ele>372.39999389648</ele>
        <time>2012-10-30T15:29:40Z</time>
      </trkpt>
      <trkpt lat="43.37243" lon="6.16034">
        <ele>374.39999389648</ele>
        <time>2012-10-30T15:29:59Z</time>
      </trkpt>
      <trkpt lat="43.37204" lon="6.16008">
        <ele>376.79998779297</ele>
        <time>2012-10-30T15:30:26Z</time>
      </trkpt>
      <trkpt lat="43.37173" lon="6.15985">
        <ele>378.60000610352</ele>
        <time>2012-10-30T15:30:49Z</time>
      </trkpt>
      <trkpt lat="43.37156" lon="6.15958">
        <ele>380.60000610352</ele>
        <time>2012-10-30T15:31:04Z</time>
      </trkpt>
      <trkpt lat="43.37145" lon="6.15931">
        <ele>382.60000610352</ele>
        <time>2012-10-30T15:31:17Z</time>
      </trkpt>
      <trkpt lat="43.37139" lon="6.15898">
        <ele>384.60000610352</ele>
        <time>2012-10-30T15:31:33Z</time>
      </trkpt>
      <trkpt lat="43.37129" lon="6.15877">
        <ele>385</ele>
        <time>2012-10-30T15:31:46Z</time>
      </trkpt>
      <trkpt lat="43.37121" lon="6.15875">
        <ele>386.60000610352</ele>
        <time>2012-10-30T15:31:50Z</time>
      </trkpt>
      <trkpt lat="43.37114" lon="6.15877">
        <ele>386.60000610352</ele>
        <time>2012-10-30T15:31:54Z</time>
      </trkpt>
      <trkpt lat="43.37093" lon="6.15911">
        <ele>386.60000610352</ele>
        <time>2012-10-30T15:32:12Z</time>
      </trkpt>
      <trkpt lat="43.37081" lon="6.15916">
        <ele>387.79998779297</ele>
        <time>2012-10-30T15:32:19Z</time>
      </trkpt>
      <trkpt lat="43.37069" lon="6.15922">
        <ele>388.60000610352</ele>
        <time>2012-10-30T15:32:27Z</time>
      </trkpt>
      <trkpt lat="43.37059" lon="6.15921">
        <ele>389</ele>
        <time>2012-10-30T15:32:33Z</time>
      </trkpt>
      <trkpt lat="43.37044" lon="6.15912">
        <ele>390.79998779297</ele>
        <time>2012-10-30T15:32:44Z</time>
      </trkpt>
      <trkpt lat="43.3704" lon="6.15904">
        <ele>390.79998779297</ele>
        <time>2012-10-30T15:32:48Z</time>
      </trkpt>
      <trkpt lat="43.37027" lon="6.15886">
        <ele>392.39999389648</ele>
        <time>2012-10-30T15:32:58Z</time>
      </trkpt>
      <trkpt lat="43.37004" lon="6.15866">
        <ele>392.79998779297</ele>
        <time>2012-10-30T15:33:12Z</time>
      </trkpt>
      <trkpt lat="43.36961" lon="6.15854">
        <ele>396</ele>
        <time>2012-10-30T15:33:34Z</time>
      </trkpt>
      <trkpt lat="43.36938" lon="6.15836">
        <ele>399</ele>
        <time>2012-10-30T15:33:48Z</time>
      </trkpt>
      <trkpt lat="43.36922" lon="6.15837">
        <ele>399</ele>
        <time>2012-10-30T15:33:56Z</time>
      </trkpt>
      <trkpt lat="43.36923" lon="6.15873">
        <ele>400.20001220703</ele>
        <time>2012-10-30T15:34:13Z</time>
      </trkpt>
      <trkpt lat="43.36936" lon="6.15925">
        <ele>403</ele>
        <time>2012-10-30T15:34:36Z</time>
      </trkpt>
      <trkpt lat="43.36936" lon="6.15955">
        <ele>404.79998779297</ele>
        <time>2012-10-30T15:34:48Z</time>
      </trkpt>
      <trkpt lat="43.36899" lon="6.16045">
        <ele>409.20001220703</ele>
        <time>2012-10-30T15:35:29Z</time>
      </trkpt>
      <trkpt lat="43.36897" lon="6.16051">
        <ele>409.20001220703</ele>
        <time>2012-10-30T15:35:32Z</time>
      </trkpt>
      <trkpt lat="43.36871" lon="6.16168">
        <ele>415.39999389648</ele>
        <time>2012-10-30T15:36:24Z</time>
      </trkpt>
      <trkpt lat="43.36858" lon="6.16184">
        <ele>416</ele>
        <time>2012-10-30T15:36:36Z</time>
      </trkpt>
      <trkpt lat="43.36845" lon="6.16187">
        <ele>417.60000610352</ele>
        <time>2012-10-30T15:37:01Z</time>
      </trkpt>
      <trkpt lat="43.36839" lon="6.16191">
        <ele>417.60000610352</ele>
        <time>2012-10-30T15:40:15Z</time>
      </trkpt>
      <trkpt lat="43.36835" lon="6.16187">
        <ele>417.60000610352</ele>
        <time>2012-10-30T15:40:18Z</time>
      </trkpt>
      <trkpt lat="43.36821" lon="6.16148">
        <ele>417.60000610352</ele>
        <time>2012-10-30T15:40:39Z</time>
      </trkpt>
      <trkpt lat="43.36821" lon="6.16038">
        <ele>417.60000610352</ele>
        <time>2012-10-30T15:41:12Z</time>
      </trkpt>
      <trkpt lat="43.36814" lon="6.15931">
        <ele>417.60000610352</ele>
        <time>2012-10-30T15:41:39Z</time>
      </trkpt>
      <trkpt lat="43.36808" lon="6.15866">
        <ele>418</ele>
        <time>2012-10-30T15:41:54Z</time>
      </trkpt>
      <trkpt lat="43.36803" lon="6.15829">
        <ele>419.60000610352</ele>
        <time>2012-10-30T15:42:03Z</time>
      </trkpt>
      <trkpt lat="43.36789" lon="6.15788">
        <ele>419.60000610352</ele>
        <time>2012-10-30T15:42:15Z</time>
      </trkpt>
      <trkpt lat="43.36782" lon="6.15782">
        <ele>419.60000610352</ele>
        <time>2012-10-30T15:42:18Z</time>
      </trkpt>
      <trkpt lat="43.36771" lon="6.15782">
        <ele>419.60000610352</ele>
        <time>2012-10-30T15:42:22Z</time>
      </trkpt>
      <trkpt lat="43.36755" lon="6.15811">
        <ele>419.60000610352</ele>
        <time>2012-10-30T15:42:33Z</time>
      </trkpt>
      <trkpt lat="43.36723" lon="6.15855">
        <ele>421.79998779297</ele>
        <time>2012-10-30T15:42:50Z</time>
      </trkpt>
      <trkpt lat="43.36711" lon="6.15872">
        <ele>421.79998779297</ele>
        <time>2012-10-30T15:42:58Z</time>
      </trkpt>
      <trkpt lat="43.36702" lon="6.15874">
        <ele>421.79998779297</ele>
        <time>2012-10-30T15:43:02Z</time>
      </trkpt>
      <trkpt lat="43.3669" lon="6.15867">
        <ele>424.20001220703</ele>
        <time>2012-10-30T15:43:11Z</time>
      </trkpt>
      <trkpt lat="43.36682" lon="6.15858">
        <ele>425.39999389648</ele>
        <time>2012-10-30T15:43:17Z</time>
      </trkpt>
      <trkpt lat="43.3668" lon="6.15854">
        <ele>426.20001220703</ele>
        <time>2012-10-30T15:43:19Z</time>
      </trkpt>
      <trkpt lat="43.36665" lon="6.15813">
        <ele>426.20001220703</ele>
        <time>2012-10-30T15:43:40Z</time>
      </trkpt>
      <trkpt lat="43.36656" lon="6.15797">
        <ele>428.20001220703</ele>
        <time>2012-10-30T15:43:50Z</time>
      </trkpt>
      <trkpt lat="43.36647" lon="6.15786">
        <ele>428.60000610352</ele>
        <time>2012-10-30T15:43:55Z</time>
      </trkpt>
      <trkpt lat="43.36643" lon="6.1578">
        <ele>430</ele>
        <time>2012-10-30T15:43:58Z</time>
      </trkpt>
      <trkpt lat="43.36616" lon="6.15756">
        <ele>433.79998779297</ele>
        <time>2012-10-30T15:44:19Z</time>
      </trkpt>
      <trkpt lat="43.36612" lon="6.15747">
        <ele>434.60000610352</ele>
        <time>2012-10-30T15:44:24Z</time>
      </trkpt>
      <trkpt lat="43.36598" lon="6.15733">
        <ele>436.39999389648</ele>
        <time>2012-10-30T15:44:35Z</time>
      </trkpt>
      <trkpt lat="43.36579" lon="6.15724">
        <ele>438.79998779297</ele>
        <time>2012-10-30T15:44:49Z</time>
      </trkpt>
      <trkpt lat="43.36573" lon="6.15714">
        <ele>439.20001220703</ele>
        <time>2012-10-30T15:44:55Z</time>
      </trkpt>
      <trkpt lat="43.36558" lon="6.15684">
        <ele>441</ele>
        <time>2012-10-30T15:45:08Z</time>
      </trkpt>
      <trkpt lat="43.36557" lon="6.15643">
        <ele>441.39999389648</ele>
        <time>2012-10-30T15:45:25Z</time>
      </trkpt>
      <trkpt lat="43.36547" lon="6.15607">
        <ele>443</ele>
        <time>2012-10-30T15:45:38Z</time>
      </trkpt>
      <trkpt lat="43.36538" lon="6.1557">
        <ele>443</ele>
        <time>2012-10-30T15:45:46Z</time>
      </trkpt>
      <trkpt lat="43.36532" lon="6.15531">
        <ele>442</ele>
        <time>2012-10-30T15:45:52Z</time>
      </trkpt>
      <trkpt lat="43.36504" lon="6.15377">
        <ele>436.60000610352</ele>
        <time>2012-10-30T15:46:17Z</time>
      </trkpt>
      <trkpt lat="43.36493" lon="6.15347">
        <ele>436.60000610352</ele>
        <time>2012-10-30T15:46:29Z</time>
      </trkpt>
      <trkpt lat="43.36483" lon="6.15335">
        <ele>438.60000610352</ele>
        <time>2012-10-30T15:46:38Z</time>
      </trkpt>
      <trkpt lat="43.36481" lon="6.15322">
        <ele>438.60000610352</ele>
        <time>2012-10-30T15:46:43Z</time>
      </trkpt>
      <trkpt lat="43.36482" lon="6.15318">
        <ele>438.60000610352</ele>
        <time>2012-10-30T15:46:44Z</time>
      </trkpt>
      <trkpt lat="43.36491" lon="6.15284">
        <ele>438.60000610352</ele>
        <time>2012-10-30T15:46:50Z</time>
      </trkpt>
      <trkpt lat="43.36499" lon="6.1527">
        <ele>438.60000610352</ele>
        <time>2012-10-30T15:46:53Z</time>
      </trkpt>
      <trkpt lat="43.36507" lon="6.15258">
        <ele>438.60000610352</ele>
        <time>2012-10-30T15:46:56Z</time>
      </trkpt>
      <trkpt lat="43.36525" lon="6.15238">
        <ele>437.79998779297</ele>
        <time>2012-10-30T15:47:01Z</time>
      </trkpt>
      <trkpt lat="43.36584" lon="6.15199">
        <ele>432.20001220703</ele>
        <time>2012-10-30T15:47:12Z</time>
      </trkpt>
      <trkpt lat="43.36615" lon="6.1519">
        <ele>430</ele>
        <time>2012-10-30T15:47:22Z</time>
      </trkpt>
      <trkpt lat="43.36619" lon="6.15189">
        <ele>430</ele>
        <time>2012-10-30T15:47:24Z</time>
      </trkpt>
      <trkpt lat="43.36637" lon="6.15187">
        <ele>430</ele>
        <time>2012-10-30T15:47:32Z</time>
      </trkpt>
      <trkpt lat="43.36651" lon="6.15186">
        <ele>432.20001220703</ele>
        <time>2012-10-30T15:47:39Z</time>
      </trkpt>
      <trkpt lat="43.36661" lon="6.1518">
        <ele>432.60000610352</ele>
        <time>2012-10-30T15:47:46Z</time>
      </trkpt>
      <trkpt lat="43.36665" lon="6.15179">
        <ele>434.39999389648</ele>
        <time>2012-10-30T15:47:49Z</time>
      </trkpt>
      <trkpt lat="43.36679" lon="6.15188">
        <ele>434.39999389648</ele>
        <time>2012-10-30T15:47:58Z</time>
      </trkpt>
      <trkpt lat="43.3672" lon="6.15193">
        <ele>436.39999389648</ele>
        <time>2012-10-30T15:48:22Z</time>
      </trkpt>
      <trkpt lat="43.36739" lon="6.15204">
        <ele>438.39999389648</ele>
        <time>2012-10-30T15:48:35Z</time>
      </trkpt>
      <trkpt lat="43.36743" lon="6.15218">
        <ele>438.39999389648</ele>
        <time>2012-10-30T15:48:42Z</time>
      </trkpt>
      <trkpt lat="43.36751" lon="6.1523">
        <ele>440.60000610352</ele>
        <time>2012-10-30T15:48:52Z</time>
      </trkpt>
      <trkpt lat="43.36767" lon="6.15235">
        <ele>443.20001220703</ele>
        <time>2012-10-30T15:49:04Z</time>
      </trkpt>
      <trkpt lat="43.36772" lon="6.15227">
        <ele>445</ele>
        <time>2012-10-30T15:49:12Z</time>
      </trkpt>
      <trkpt lat="43.36775" lon="6.15204">
        <ele>445</ele>
        <time>2012-10-30T15:49:22Z</time>
      </trkpt>
      <trkpt lat="43.36783" lon="6.15194">
        <ele>445</ele>
        <time>2012-10-30T15:49:29Z</time>
      </trkpt>
      <trkpt lat="43.36795" lon="6.15188">
        <ele>445.79998779297</ele>
        <time>2012-10-30T15:49:38Z</time>
      </trkpt>
      <trkpt lat="43.36813" lon="6.1518">
        <ele>449</ele>
        <time>2012-10-30T15:49:51Z</time>
      </trkpt>
      <trkpt lat="43.36822" lon="6.15179">
        <ele>450.60000610352</ele>
        <time>2012-10-30T15:49:59Z</time>
      </trkpt>
      <trkpt lat="43.36823" lon="6.15179">
        <ele>451.20001220703</ele>
        <time>2012-10-30T15:50:11Z</time>
      </trkpt>
      <trkpt lat="43.36824" lon="6.15179">
        <ele>451.60000610352</ele>
        <time>2012-10-30T15:50:13Z</time>
      </trkpt>
      <trkpt lat="43.36824" lon="6.15179">
        <ele>453.20001220703</ele>
        <time>2012-10-30T15:50:38Z</time>
      </trkpt>
      <trkpt lat="43.36836" lon="6.15183">
        <ele>453.60000610352</ele>
        <time>2012-10-30T15:50:45Z</time>
      </trkpt>
      <trkpt lat="43.36844" lon="6.15181">
        <ele>455.39999389648</ele>
        <time>2012-10-30T15:50:49Z</time>
      </trkpt>
      <trkpt lat="43.36847" lon="6.15182">
        <ele>455.79998779297</ele>
        <time>2012-10-30T15:50:51Z</time>
      </trkpt>
      <trkpt lat="43.36858" lon="6.15185">
        <ele>457.39999389648</ele>
        <time>2012-10-30T15:51:13Z</time>
      </trkpt>
      <trkpt lat="43.36877" lon="6.15188">
        <ele>457.39999389648</ele>
        <time>2012-10-30T15:53:13Z</time>
      </trkpt>
      <trkpt lat="43.36903" lon="6.15214">
        <ele>457.39999389648</ele>
        <time>2012-10-30T15:53:47Z</time>
      </trkpt>
      <trkpt lat="43.3691" lon="6.15215">
        <ele>457.39999389648</ele>
        <time>2012-10-30T15:53:52Z</time>
      </trkpt>
      <trkpt lat="43.36928" lon="6.15208">
        <ele>456.39999389648</ele>
        <time>2012-10-30T15:53:57Z</time>
      </trkpt>
      <trkpt lat="43.36946" lon="6.1521">
        <ele>453.79998779297</ele>
        <time>2012-10-30T15:54:01Z</time>
      </trkpt>
      <trkpt lat="43.36966" lon="6.15195">
        <ele>451.39999389648</ele>
        <time>2012-10-30T15:54:06Z</time>
      </trkpt>
      <trkpt lat="43.36979" lon="6.15169">
        <ele>449.79998779297</ele>
        <time>2012-10-30T15:54:11Z</time>
      </trkpt>
      <trkpt lat="43.36982" lon="6.15139">
        <ele>448.39999389648</ele>
        <time>2012-10-30T15:54:18Z</time>
      </trkpt>
      <trkpt lat="43.36978" lon="6.15124">
        <ele>448.39999389648</ele>
        <time>2012-10-30T15:54:23Z</time>
      </trkpt>
      <trkpt lat="43.3699" lon="6.15101">
        <ele>446.39999389648</ele>
        <time>2012-10-30T15:54:32Z</time>
      </trkpt>
      <trkpt lat="43.36984" lon="6.15049">
        <ele>446.39999389648</ele>
        <time>2012-10-30T15:54:43Z</time>
      </trkpt>
      <trkpt lat="43.36988" lon="6.15027">
        <ele>446.39999389648</ele>
        <time>2012-10-30T15:54:48Z</time>
      </trkpt>
      <trkpt lat="43.37002" lon="6.14989">
        <ele>443</ele>
        <time>2012-10-30T15:54:55Z</time>
      </trkpt>
      <trkpt lat="43.37012" lon="6.14958">
        <ele>437.39999389648</ele>
        <time>2012-10-30T15:55:03Z</time>
      </trkpt>
      <trkpt lat="43.37025" lon="6.14916">
        <ele>430.39999389648</ele>
        <time>2012-10-30T15:55:16Z</time>
      </trkpt>
      <trkpt lat="43.37029" lon="6.14869">
        <ele>422.60000610352</ele>
        <time>2012-10-30T15:55:32Z</time>
      </trkpt>
      <trkpt lat="43.37029" lon="6.14859">
        <ele>421.39999389648</ele>
        <time>2012-10-30T15:55:35Z</time>
      </trkpt>
      <trkpt lat="43.37029" lon="6.14831">
        <ele>417.20001220703</ele>
        <time>2012-10-30T15:55:41Z</time>
      </trkpt>
      <trkpt lat="43.37033" lon="6.14817">
        <ele>414.60000610352</ele>
        <time>2012-10-30T15:55:45Z</time>
      </trkpt>
      <trkpt lat="43.37039" lon="6.14803">
        <ele>413</ele>
        <time>2012-10-30T15:55:48Z</time>
      </trkpt>
      <trkpt lat="43.37042" lon="6.14781">
        <ele>410.79998779297</ele>
        <time>2012-10-30T15:55:52Z</time>
      </trkpt>
      <trkpt lat="43.37051" lon="6.14746">
        <ele>407.79998779297</ele>
        <time>2012-10-30T15:55:58Z</time>
      </trkpt>
      <trkpt lat="43.37051" lon="6.14727">
        <ele>405.39999389648</ele>
        <time>2012-10-30T15:56:02Z</time>
      </trkpt>
      <trkpt lat="43.37051" lon="6.14716">
        <ele>405</ele>
        <time>2012-10-30T15:56:04Z</time>
      </trkpt>
      <trkpt lat="43.37058" lon="6.14695">
        <ele>403</ele>
        <time>2012-10-30T15:56:08Z</time>
      </trkpt>
      <trkpt lat="43.37056" lon="6.14674">
        <ele>401.60000610352</ele>
        <time>2012-10-30T15:56:12Z</time>
      </trkpt>
      <trkpt lat="43.37061" lon="6.14661">
        <ele>400.39999389648</ele>
        <time>2012-10-30T15:56:15Z</time>
      </trkpt>
      <trkpt lat="43.37061" lon="6.14648">
        <ele>400.39999389648</ele>
        <time>2012-10-30T15:56:18Z</time>
      </trkpt>
      <trkpt lat="43.37049" lon="6.14598">
        <ele>398.20001220703</ele>
        <time>2012-10-30T15:56:27Z</time>
      </trkpt>
      <trkpt lat="43.37055" lon="6.14568">
        <ele>396</ele>
        <time>2012-10-30T15:56:32Z</time>
      </trkpt>
      <trkpt lat="43.37065" lon="6.14545">
        <ele>395.60000610352</ele>
        <time>2012-10-30T15:56:37Z</time>
      </trkpt>
      <trkpt lat="43.3707" lon="6.1451">
        <ele>394</ele>
        <time>2012-10-30T15:56:42Z</time>
      </trkpt>
      <trkpt lat="43.37062" lon="6.14474">
        <ele>391.79998779297</ele>
        <time>2012-10-30T15:56:49Z</time>
      </trkpt>
      <trkpt lat="43.37062" lon="6.14421">
        <ele>388.79998779297</ele>
        <time>2012-10-30T15:56:56Z</time>
      </trkpt>
      <trkpt lat="43.37064" lon="6.14414">
        <ele>388.39999389648</ele>
        <time>2012-10-30T15:56:57Z</time>
      </trkpt>
      <trkpt lat="43.37067" lon="6.14405">
        <ele>387.60000610352</ele>
        <time>2012-10-30T15:56:59Z</time>
      </trkpt>
      <trkpt lat="43.37077" lon="6.14398">
        <ele>387.20001220703</ele>
        <time>2012-10-30T15:57:02Z</time>
      </trkpt>
      <trkpt lat="43.37085" lon="6.14396">
        <ele>386.39999389648</ele>
        <time>2012-10-30T15:57:04Z</time>
      </trkpt>
      <trkpt lat="43.37088" lon="6.14388">
        <ele>385.60000610352</ele>
        <time>2012-10-30T15:57:06Z</time>
      </trkpt>
      <trkpt lat="43.37086" lon="6.14381">
        <ele>384.79998779297</ele>
        <time>2012-10-30T15:57:08Z</time>
      </trkpt>
      <trkpt lat="43.37085" lon="6.14363">
        <ele>383.60000610352</ele>
        <time>2012-10-30T15:57:11Z</time>
      </trkpt>
      <trkpt lat="43.37085" lon="6.14339">
        <ele>382</ele>
        <time>2012-10-30T15:57:15Z</time>
      </trkpt>
      <trkpt lat="43.37085" lon="6.14338">
        <ele>381.20001220703</ele>
        <time>2012-10-30T15:57:25Z</time>
      </trkpt>
      <trkpt lat="43.37085" lon="6.14338">
        <ele>379.20001220703</ele>
        <time>2012-10-30T15:57:58Z</time>
      </trkpt>
      <trkpt lat="43.37086" lon="6.14337">
        <ele>379.20001220703</ele>
        <time>2012-10-30T15:58:11Z</time>
      </trkpt>
      <trkpt lat="43.37086" lon="6.14321">
        <ele>379.20001220703</ele>
        <time>2012-10-30T15:58:16Z</time>
      </trkpt>
      <trkpt lat="43.3707" lon="6.14274">
        <ele>377.39999389648</ele>
        <time>2012-10-30T15:58:27Z</time>
      </trkpt>
      <trkpt lat="43.37063" lon="6.14222">
        <ele>377</ele>
        <time>2012-10-30T15:58:37Z</time>
      </trkpt>
      <trkpt lat="43.37056" lon="6.14204">
        <ele>377</ele>
        <time>2012-10-30T15:58:41Z</time>
      </trkpt>
      <trkpt lat="43.37037" lon="6.14171">
        <ele>377</ele>
        <time>2012-10-30T15:58:49Z</time>
      </trkpt>
      <trkpt lat="43.37023" lon="6.1414">
        <ele>375</ele>
        <time>2012-10-30T15:58:54Z</time>
      </trkpt>
      <trkpt lat="43.36998" lon="6.14106">
        <ele>373.20001220703</ele>
        <time>2012-10-30T15:59:01Z</time>
      </trkpt>
      <trkpt lat="43.36983" lon="6.14101">
        <ele>372.79998779297</ele>
        <time>2012-10-30T15:59:04Z</time>
      </trkpt>
      <trkpt lat="43.36978" lon="6.14101">
        <ele>372.79998779297</ele>
        <time>2012-10-30T15:59:05Z</time>
      </trkpt>
      <trkpt lat="43.36967" lon="6.141">
        <ele>372.79998779297</ele>
        <time>2012-10-30T15:59:07Z</time>
      </trkpt>
      <trkpt lat="43.36958" lon="6.14104">
        <ele>372.79998779297</ele>
        <time>2012-10-30T15:59:09Z</time>
      </trkpt>
      <trkpt lat="43.36932" lon="6.14121">
        <ele>372.79998779297</ele>
        <time>2012-10-30T15:59:17Z</time>
      </trkpt>
      <trkpt lat="43.36918" lon="6.14113">
        <ele>373.39999389648</ele>
        <time>2012-10-30T15:59:22Z</time>
      </trkpt>
      <trkpt lat="43.36892" lon="6.14121">
        <ele>375.20001220703</ele>
        <time>2012-10-30T15:59:29Z</time>
      </trkpt>
      <trkpt lat="43.36888" lon="6.14118">
        <ele>375.20001220703</ele>
        <time>2012-10-30T15:59:30Z</time>
      </trkpt>
      <trkpt lat="43.36882" lon="6.14106">
        <ele>374.20001220703</ele>
        <time>2012-10-30T15:59:32Z</time>
      </trkpt>
      <trkpt lat="43.36872" lon="6.14057">
        <ele>371.60000610352</ele>
        <time>2012-10-30T15:59:38Z</time>
      </trkpt>
      <trkpt lat="43.36869" lon="6.1405">
        <ele>371</ele>
        <time>2012-10-30T15:59:39Z</time>
      </trkpt>
      <trkpt lat="43.36864" lon="6.14035">
        <ele>370</ele>
        <time>2012-10-30T15:59:41Z</time>
      </trkpt>
      <trkpt lat="43.36863" lon="6.14001">
        <ele>366.60000610352</ele>
        <time>2012-10-30T15:59:45Z</time>
      </trkpt>
      <trkpt lat="43.36862" lon="6.13995">
        <ele>366</ele>
        <time>2012-10-30T15:59:46Z</time>
      </trkpt>
      <trkpt lat="43.36858" lon="6.13987">
        <ele>364.39999389648</ele>
        <time>2012-10-30T15:59:48Z</time>
      </trkpt>
      <trkpt lat="43.36839" lon="6.13965">
        <ele>361.39999389648</ele>
        <time>2012-10-30T15:59:55Z</time>
      </trkpt>
      <trkpt lat="43.36831" lon="6.1396">
        <ele>361.39999389648</ele>
        <time>2012-10-30T15:59:58Z</time>
      </trkpt>
      <trkpt lat="43.36824" lon="6.13975">
        <ele>361.39999389648</ele>
        <time>2012-10-30T16:00:04Z</time>
      </trkpt>
      <trkpt lat="43.36821" lon="6.13983">
        <ele>361.39999389648</ele>
        <time>2012-10-30T16:00:07Z</time>
      </trkpt>
      <trkpt lat="43.36797" lon="6.13995">
        <ele>363.60000610352</ele>
        <time>2012-10-30T16:00:19Z</time>
      </trkpt>
      <trkpt lat="43.36786" lon="6.14">
        <ele>363.60000610352</ele>
        <time>2012-10-30T16:00:25Z</time>
      </trkpt>
      <trkpt lat="43.36774" lon="6.14013">
        <ele>365.79998779297</ele>
        <time>2012-10-30T16:00:33Z</time>
      </trkpt>
      <trkpt lat="43.36764" lon="6.14019">
        <ele>367.79998779297</ele>
        <time>2012-10-30T16:00:41Z</time>
      </trkpt>
      <trkpt lat="43.36749" lon="6.14016">
        <ele>367.79998779297</ele>
        <time>2012-10-30T16:00:50Z</time>
      </trkpt>
      <trkpt lat="43.36726" lon="6.14004">
        <ele>367.79998779297</ele>
        <time>2012-10-30T16:01:03Z</time>
      </trkpt>
      <trkpt lat="43.36715" lon="6.14006">
        <ele>369.39999389648</ele>
        <time>2012-10-30T16:01:10Z</time>
      </trkpt>
      <trkpt lat="43.36707" lon="6.14013">
        <ele>369.79998779297</ele>
        <time>2012-10-30T16:01:13Z</time>
      </trkpt>
      <trkpt lat="43.367" lon="6.14025">
        <ele>369.79998779297</ele>
        <time>2012-10-30T16:01:18Z</time>
      </trkpt>
      <trkpt lat="43.3669" lon="6.14036">
        <ele>369.79998779297</ele>
        <time>2012-10-30T16:01:24Z</time>
      </trkpt>
      <trkpt lat="43.3668" lon="6.14049">
        <ele>369.79998779297</ele>
        <time>2012-10-30T16:01:30Z</time>
      </trkpt>
      <trkpt lat="43.36671" lon="6.14067">
        <ele>369.79998779297</ele>
        <time>2012-10-30T16:01:37Z</time>
      </trkpt>
      <trkpt lat="43.36664" lon="6.1411">
        <ele>369.79998779297</ele>
        <time>2012-10-30T16:01:51Z</time>
      </trkpt>
      <trkpt lat="43.36665" lon="6.14129">
        <ele>369.79998779297</ele>
        <time>2012-10-30T16:01:58Z</time>
      </trkpt>
      <trkpt lat="43.36664" lon="6.14146">
        <ele>369.79998779297</ele>
        <time>2012-10-30T16:02:04Z</time>
      </trkpt>
      <trkpt lat="43.36677" lon="6.14204">
        <ele>374</ele>
        <time>2012-10-30T16:02:31Z</time>
      </trkpt>
      <trkpt lat="43.3668" lon="6.14249">
        <ele>374.39999389648</ele>
        <time>2012-10-30T16:02:48Z</time>
      </trkpt>
      <trkpt lat="43.36679" lon="6.14271">
        <ele>376.20001220703</ele>
        <time>2012-10-30T16:02:57Z</time>
      </trkpt>
      <trkpt lat="43.36659" lon="6.14315">
        <ele>376.20001220703</ele>
        <time>2012-10-30T16:03:16Z</time>
      </trkpt>
      <trkpt lat="43.36657" lon="6.14331">
        <ele>376.20001220703</ele>
        <time>2012-10-30T16:03:22Z</time>
      </trkpt>
      <trkpt lat="43.36654" lon="6.14364">
        <ele>378.20001220703</ele>
        <time>2012-10-30T16:03:35Z</time>
      </trkpt>
      <trkpt lat="43.36618" lon="6.14411">
        <ele>381.60000610352</ele>
        <time>2012-10-30T16:04:00Z</time>
      </trkpt>
      <trkpt lat="43.36604" lon="6.14445">
        <ele>382.79998779297</ele>
        <time>2012-10-30T16:04:16Z</time>
      </trkpt>
      <trkpt lat="43.36602" lon="6.14454">
        <ele>384.60000610352</ele>
        <time>2012-10-30T16:04:20Z</time>
      </trkpt>
      <trkpt lat="43.36593" lon="6.14465">
        <ele>384.60000610352</ele>
        <time>2012-10-30T16:04:26Z</time>
      </trkpt>
      <trkpt lat="43.36587" lon="6.14458">
        <ele>384.60000610352</ele>
        <time>2012-10-30T16:04:29Z</time>
      </trkpt>
      <trkpt lat="43.36582" lon="6.14409">
        <ele>386.20001220703</ele>
        <time>2012-10-30T16:04:46Z</time>
      </trkpt>
      <trkpt lat="43.36581" lon="6.14405">
        <ele>386.60000610352</ele>
        <time>2012-10-30T16:04:47Z</time>
      </trkpt>
      <trkpt lat="43.3657" lon="6.14394">
        <ele>388.20001220703</ele>
        <time>2012-10-30T16:04:54Z</time>
      </trkpt>
      <trkpt lat="43.36537" lon="6.14381">
        <ele>394</ele>
        <time>2012-10-30T16:05:15Z</time>
      </trkpt>
      <trkpt lat="43.36528" lon="6.14367">
        <ele>395.39999389648</ele>
        <time>2012-10-30T16:05:26Z</time>
      </trkpt>
      <trkpt lat="43.36524" lon="6.14359">
        <ele>395.39999389648</ele>
        <time>2012-10-30T16:05:30Z</time>
      </trkpt>
      <trkpt lat="43.36525" lon="6.14333">
        <ele>395.39999389648</ele>
        <time>2012-10-30T16:05:39Z</time>
      </trkpt>
      <trkpt lat="43.36538" lon="6.14302">
        <ele>395.39999389648</ele>
        <time>2012-10-30T16:05:48Z</time>
      </trkpt>
      <trkpt lat="43.36548" lon="6.14258">
        <ele>395.39999389648</ele>
        <time>2012-10-30T16:05:56Z</time>
      </trkpt>
      <trkpt lat="43.36553" lon="6.14206">
        <ele>393.60000610352</ele>
        <time>2012-10-30T16:06:03Z</time>
      </trkpt>
      <trkpt lat="43.36545" lon="6.14128">
        <ele>390.79998779297</ele>
        <time>2012-10-30T16:06:12Z</time>
      </trkpt>
      <trkpt lat="43.36526" lon="6.14054">
        <ele>388.20001220703</ele>
        <time>2012-10-30T16:06:20Z</time>
      </trkpt>
      <trkpt lat="43.3653" lon="6.13987">
        <ele>386.39999389648</ele>
        <time>2012-10-30T16:06:28Z</time>
      </trkpt>
      <trkpt lat="43.36525" lon="6.13958">
        <ele>386.39999389648</ele>
        <time>2012-10-30T16:06:32Z</time>
      </trkpt>
      <trkpt lat="43.36526" lon="6.13908">
        <ele>384.20001220703</ele>
        <time>2012-10-30T16:06:38Z</time>
      </trkpt>
      <trkpt lat="43.36532" lon="6.13884">
        <ele>383.79998779297</ele>
        <time>2012-10-30T16:06:41Z</time>
      </trkpt>
      <trkpt lat="43.36536" lon="6.13846">
        <ele>382.20001220703</ele>
        <time>2012-10-30T16:06:45Z</time>
      </trkpt>
      <trkpt lat="43.36538" lon="6.13817">
        <ele>381.39999389648</ele>
        <time>2012-10-30T16:06:48Z</time>
      </trkpt>
      <trkpt lat="43.36548" lon="6.1377">
        <ele>379.60000610352</ele>
        <time>2012-10-30T16:06:53Z</time>
      </trkpt>
      <trkpt lat="43.36569" lon="6.13626">
        <ele>373.79998779297</ele>
        <time>2012-10-30T16:07:05Z</time>
      </trkpt>
      <trkpt lat="43.36594" lon="6.1353">
        <ele>368.39999389648</ele>
        <time>2012-10-30T16:07:13Z</time>
      </trkpt>
      <trkpt lat="43.36607" lon="6.13458">
        <ele>365.20001220703</ele>
        <time>2012-10-30T16:07:19Z</time>
      </trkpt>
      <trkpt lat="43.3661" lon="6.13449">
        <ele>364.60000610352</ele>
        <time>2012-10-30T16:07:20Z</time>
      </trkpt>
      <trkpt lat="43.36652" lon="6.13287">
        <ele>360.39999389648</ele>
        <time>2012-10-30T16:07:36Z</time>
      </trkpt>
      <trkpt lat="43.36659" lon="6.13209">
        <ele>357.79998779297</ele>
        <time>2012-10-30T16:07:43Z</time>
      </trkpt>
      <trkpt lat="43.36663" lon="6.13188">
        <ele>356.79998779297</ele>
        <time>2012-10-30T16:07:45Z</time>
      </trkpt>
      <trkpt lat="43.36668" lon="6.13152">
        <ele>354.39999389648</ele>
        <time>2012-10-30T16:07:50Z</time>
      </trkpt>
      <trkpt lat="43.36671" lon="6.13148">
        <ele>353.79998779297</ele>
        <time>2012-10-30T16:07:51Z</time>
      </trkpt>
      <trkpt lat="43.36675" lon="6.13146">
        <ele>353.39999389648</ele>
        <time>2012-10-30T16:07:52Z</time>
      </trkpt>
      <trkpt lat="43.36686" lon="6.13141">
        <ele>351.20001220703</ele>
        <time>2012-10-30T16:07:57Z</time>
      </trkpt>
      <trkpt lat="43.36699" lon="6.13128">
        <ele>350.60000610352</ele>
        <time>2012-10-30T16:08:01Z</time>
      </trkpt>
      <trkpt lat="43.36702" lon="6.13122">
        <ele>350.20001220703</ele>
        <time>2012-10-30T16:08:02Z</time>
      </trkpt>
      <trkpt lat="43.36717" lon="6.13071">
        <ele>347.39999389648</ele>
        <time>2012-10-30T16:08:08Z</time>
      </trkpt>
      <trkpt lat="43.36766" lon="6.12986">
        <ele>344</ele>
        <time>2012-10-30T16:08:19Z</time>
      </trkpt>
      <trkpt lat="43.36807" lon="6.12946">
        <ele>339.79998779297</ele>
        <time>2012-10-30T16:08:25Z</time>
      </trkpt>
      <trkpt lat="43.36845" lon="6.12903">
        <ele>337.60000610352</ele>
        <time>2012-10-30T16:08:31Z</time>
      </trkpt>
      <trkpt lat="43.36888" lon="6.12863">
        <ele>334.79998779297</ele>
        <time>2012-10-30T16:08:37Z</time>
      </trkpt>
      <trkpt lat="43.36908" lon="6.12839">
        <ele>333</ele>
        <time>2012-10-30T16:08:40Z</time>
      </trkpt>
      <trkpt lat="43.36962" lon="6.12728">
        <ele>328.79998779297</ele>
        <time>2012-10-30T16:08:52Z</time>
      </trkpt>
      <trkpt lat="43.37037" lon="6.12571">
        <ele>326.39999389648</ele>
        <time>2012-10-30T16:09:12Z</time>
      </trkpt>
      <trkpt lat="43.37041" lon="6.12564">
        <ele>326</ele>
        <time>2012-10-30T16:09:13Z</time>
      </trkpt>
      <trkpt lat="43.37057" lon="6.12546">
        <ele>324.60000610352</ele>
        <time>2012-10-30T16:09:16Z</time>
      </trkpt>
      <trkpt lat="43.37093" lon="6.12516">
        <ele>323.79998779297</ele>
        <time>2012-10-30T16:09:22Z</time>
      </trkpt>
      <trkpt lat="43.37112" lon="6.12491">
        <ele>322.39999389648</ele>
        <time>2012-10-30T16:09:26Z</time>
      </trkpt>
      <trkpt lat="43.37156" lon="6.12399">
        <ele>322.39999389648</ele>
        <time>2012-10-30T16:09:39Z</time>
      </trkpt>
      <trkpt lat="43.37203" lon="6.12335">
        <ele>322.39999389648</ele>
        <time>2012-10-30T16:09:51Z</time>
      </trkpt>
      <trkpt lat="43.37216" lon="6.12307">
        <ele>324.20001220703</ele>
        <time>2012-10-30T16:09:57Z</time>
      </trkpt>
      <trkpt lat="43.37218" lon="6.12303">
        <ele>324.60000610352</ele>
        <time>2012-10-30T16:09:58Z</time>
      </trkpt>
      <trkpt lat="43.37251" lon="6.12214">
        <ele>329.39999389648</ele>
        <time>2012-10-30T16:10:23Z</time>
      </trkpt>
      <trkpt lat="43.37263" lon="6.12189">
        <ele>331.39999389648</ele>
        <time>2012-10-30T16:10:33Z</time>
      </trkpt>
      <trkpt lat="43.37281" lon="6.1216">
        <ele>334.20001220703</ele>
        <time>2012-10-30T16:10:47Z</time>
      </trkpt>
      <trkpt lat="43.37295" lon="6.12146">
        <ele>337</ele>
        <time>2012-10-30T16:10:57Z</time>
      </trkpt>
      <trkpt lat="43.3732" lon="6.12131">
        <ele>341</ele>
        <time>2012-10-30T16:11:13Z</time>
      </trkpt>
      <trkpt lat="43.37337" lon="6.12115">
        <ele>343.20001220703</ele>
        <time>2012-10-30T16:11:27Z</time>
      </trkpt>
      <trkpt lat="43.37362" lon="6.12097">
        <ele>345.20001220703</ele>
        <time>2012-10-30T16:11:45Z</time>
      </trkpt>
      <trkpt lat="43.37374" lon="6.12092">
        <ele>347.20001220703</ele>
        <time>2012-10-30T16:11:53Z</time>
      </trkpt>
      <trkpt lat="43.37426" lon="6.12089">
        <ele>351</ele>
        <time>2012-10-30T16:12:21Z</time>
      </trkpt>
      <trkpt lat="43.37447" lon="6.12089">
        <ele>351.39999389648</ele>
        <time>2012-10-30T16:12:28Z</time>
      </trkpt>
      <trkpt lat="43.37469" lon="6.12079">
        <ele>350.79998779297</ele>
        <time>2012-10-30T16:12:32Z</time>
      </trkpt>
      <trkpt lat="43.37494" lon="6.12056">
        <ele>347.79998779297</ele>
        <time>2012-10-30T16:12:36Z</time>
      </trkpt>
      <trkpt lat="43.37536" lon="6.12009">
        <ele>341.39999389648</ele>
        <time>2012-10-30T16:12:42Z</time>
      </trkpt>
      <trkpt lat="43.37544" lon="6.12001">
        <ele>340.20001220703</ele>
        <time>2012-10-30T16:12:43Z</time>
      </trkpt>
      <trkpt lat="43.37582" lon="6.11968">
        <ele>334.20001220703</ele>
        <time>2012-10-30T16:12:48Z</time>
      </trkpt>
      <trkpt lat="43.37601" lon="6.11944">
        <ele>331.20001220703</ele>
        <time>2012-10-30T16:12:51Z</time>
      </trkpt>
      <trkpt lat="43.37607" lon="6.11935">
        <ele>330.20001220703</ele>
        <time>2012-10-30T16:12:52Z</time>
      </trkpt>
      <trkpt lat="43.37641" lon="6.11878">
        <ele>323.79998779297</ele>
        <time>2012-10-30T16:12:57Z</time>
      </trkpt>
      <trkpt lat="43.37671" lon="6.11836">
        <ele>318.79998779297</ele>
        <time>2012-10-30T16:13:02Z</time>
      </trkpt>
      <trkpt lat="43.37687" lon="6.11799">
        <ele>315.39999389648</ele>
        <time>2012-10-30T16:13:06Z</time>
      </trkpt>
      <trkpt lat="43.377" lon="6.11766">
        <ele>313.20001220703</ele>
        <time>2012-10-30T16:13:09Z</time>
      </trkpt>
      <trkpt lat="43.3773" lon="6.11711">
        <ele>309.20001220703</ele>
        <time>2012-10-30T16:13:15Z</time>
      </trkpt>
      <trkpt lat="43.3776" lon="6.11648">
        <ele>306.20001220703</ele>
        <time>2012-10-30T16:13:22Z</time>
      </trkpt>
      <trkpt lat="43.3777" lon="6.1163">
        <ele>305.20001220703</ele>
        <time>2012-10-30T16:13:24Z</time>
      </trkpt>
      <trkpt lat="43.37776" lon="6.11621">
        <ele>304.79998779297</ele>
        <time>2012-10-30T16:13:25Z</time>
      </trkpt>
      <trkpt lat="43.37813" lon="6.11576">
        <ele>302.20001220703</ele>
        <time>2012-10-30T16:13:31Z</time>
      </trkpt>
      <trkpt lat="43.37838" lon="6.11514">
        <ele>300.20001220703</ele>
        <time>2012-10-30T16:13:38Z</time>
      </trkpt>
      <trkpt lat="43.37851" lon="6.11488">
        <ele>299.79998779297</ele>
        <time>2012-10-30T16:13:41Z</time>
      </trkpt>
      <trkpt lat="43.37862" lon="6.11476">
        <ele>298.39999389648</ele>
        <time>2012-10-30T16:13:43Z</time>
      </trkpt>
      <trkpt lat="43.37889" lon="6.11467">
        <ele>297.20001220703</ele>
        <time>2012-10-30T16:13:47Z</time>
      </trkpt>
      <trkpt lat="43.37906" lon="6.11454">
        <ele>295.79998779297</ele>
        <time>2012-10-30T16:13:50Z</time>
      </trkpt>
      <trkpt lat="43.37923" lon="6.11435">
        <ele>295.79998779297</ele>
        <time>2012-10-30T16:13:54Z</time>
      </trkpt>
      <trkpt lat="43.3796" lon="6.11388">
        <ele>295.79998779297</ele>
        <time>2012-10-30T16:14:04Z</time>
      </trkpt>
      <trkpt lat="43.37983" lon="6.11361">
        <ele>295.79998779297</ele>
        <time>2012-10-30T16:14:10Z</time>
      </trkpt>
      <trkpt lat="43.38044" lon="6.11227">
        <ele>295.79998779297</ele>
        <time>2012-10-30T16:14:38Z</time>
      </trkpt>
      <trkpt lat="43.38062" lon="6.11201">
        <ele>295.79998779297</ele>
        <time>2012-10-30T16:14:45Z</time>
      </trkpt>
      <trkpt lat="43.38129" lon="6.11131">
        <ele>293.20001220703</ele>
        <time>2012-10-30T16:15:04Z</time>
      </trkpt>
      <trkpt lat="43.38147" lon="6.11106">
        <ele>291.60000610352</ele>
        <time>2012-10-30T16:15:08Z</time>
      </trkpt>
      <trkpt lat="43.38165" lon="6.11058">
        <ele>291.20001220703</ele>
        <time>2012-10-30T16:15:14Z</time>
      </trkpt>
      <trkpt lat="43.38195" lon="6.10903">
        <ele>286.60000610352</ele>
        <time>2012-10-30T16:15:31Z</time>
      </trkpt>
      <trkpt lat="43.38199" lon="6.1089">
        <ele>285.39999389648</ele>
        <time>2012-10-30T16:15:34Z</time>
      </trkpt>
      <trkpt lat="43.38231" lon="6.10898">
        <ele>285</ele>
        <time>2012-10-30T16:15:44Z</time>
      </trkpt>
      <trkpt lat="43.38288" lon="6.10915">
        <ele>283</ele>
        <time>2012-10-30T16:16:00Z</time>
      </trkpt>
      <trkpt lat="43.38298" lon="6.10918">
        <ele>283</ele>
        <time>2012-10-30T16:16:03Z</time>
      </trkpt>
      <trkpt lat="43.3835" lon="6.10937">
        <ele>283</ele>
        <time>2012-10-30T16:16:20Z</time>
      </trkpt>
      <trkpt lat="43.38393" lon="6.10949">
        <ele>283.79998779297</ele>
        <time>2012-10-30T16:16:32Z</time>
      </trkpt>
      <trkpt lat="43.3843" lon="6.10958">
        <ele>285</ele>
        <time>2012-10-30T16:16:43Z</time>
      </trkpt>
      <trkpt lat="43.38467" lon="6.10961">
        <ele>286.20001220703</ele>
        <time>2012-10-30T16:16:55Z</time>
      </trkpt>
      <trkpt lat="43.38474" lon="6.10961">
        <ele>287</ele>
        <time>2012-10-30T16:16:58Z</time>
      </trkpt>
      <trkpt lat="43.385" lon="6.10966">
        <ele>287</ele>
        <time>2012-10-30T16:17:09Z</time>
      </trkpt>
      <trkpt lat="43.38562" lon="6.10989">
        <ele>293.20001220703</ele>
        <time>2012-10-30T16:17:36Z</time>
      </trkpt>
      <trkpt lat="43.38589" lon="6.10989">
        <ele>294</ele>
        <time>2012-10-30T16:17:48Z</time>
      </trkpt>
      <trkpt lat="43.38602" lon="6.10988">
        <ele>295.79998779297</ele>
        <time>2012-10-30T16:17:53Z</time>
      </trkpt>
      <trkpt lat="43.38622" lon="6.11001">
        <ele>295.79998779297</ele>
        <time>2012-10-30T16:18:02Z</time>
      </trkpt>
      <trkpt lat="43.38649" lon="6.11023">
        <ele>295.79998779297</ele>
        <time>2012-10-30T16:18:11Z</time>
      </trkpt>
      <trkpt lat="43.38688" lon="6.1106">
        <ele>293.60000610352</ele>
        <time>2012-10-30T16:18:19Z</time>
      </trkpt>
      <trkpt lat="43.38704" lon="6.1107">
        <ele>292.20001220703</ele>
        <time>2012-10-30T16:18:23Z</time>
      </trkpt>
      <trkpt lat="43.38712" lon="6.11103">
        <ele>291.39999389648</ele>
        <time>2012-10-30T16:18:31Z</time>
      </trkpt>
      <trkpt lat="43.38722" lon="6.1111">
        <ele>291.39999389648</ele>
        <time>2012-10-30T16:18:35Z</time>
      </trkpt>
      <trkpt lat="43.38773" lon="6.11126">
        <ele>291.39999389648</ele>
        <time>2012-10-30T16:18:51Z</time>
      </trkpt>
      <trkpt lat="43.38781" lon="6.1113">
        <ele>291.39999389648</ele>
        <time>2012-10-30T16:18:53Z</time>
      </trkpt>
      <trkpt lat="43.38834" lon="6.11165">
        <ele>289.39999389648</ele>
        <time>2012-10-30T16:19:10Z</time>
      </trkpt>
      <trkpt lat="43.38849" lon="6.11171">
        <ele>289.39999389648</ele>
        <time>2012-10-30T16:19:14Z</time>
      </trkpt>
      <trkpt lat="43.38871" lon="6.11177">
        <ele>288.60000610352</ele>
        <time>2012-10-30T16:19:19Z</time>
      </trkpt>
      <trkpt lat="43.38876" lon="6.11178">
        <ele>288.20001220703</ele>
        <time>2012-10-30T16:19:20Z</time>
      </trkpt>
      <trkpt lat="43.38902" lon="6.1118">
        <ele>287.39999389648</ele>
        <time>2012-10-30T16:19:26Z</time>
      </trkpt>
      <trkpt lat="43.38945" lon="6.11195">
        <ele>287.39999389648</ele>
        <time>2012-10-30T16:19:39Z</time>
      </trkpt>
      <trkpt lat="43.38953" lon="6.11196">
        <ele>287.39999389648</ele>
        <time>2012-10-30T16:19:43Z</time>
      </trkpt>
      <trkpt lat="43.3897" lon="6.11196">
        <ele>287.39999389648</ele>
        <time>2012-10-30T16:19:51Z</time>
      </trkpt>
      <trkpt lat="43.3898" lon="6.11196">
        <ele>289.60000610352</ele>
        <time>2012-10-30T16:19:58Z</time>
      </trkpt>
      <trkpt lat="43.39" lon="6.1119">
        <ele>291.60000610352</ele>
        <time>2012-10-30T16:20:10Z</time>
      </trkpt>
      <trkpt lat="43.39017" lon="6.11199">
        <ele>293.79998779297</ele>
        <time>2012-10-30T16:20:20Z</time>
      </trkpt>
      <trkpt lat="43.39032" lon="6.11217">
        <ele>294.20001220703</ele>
        <time>2012-10-30T16:20:32Z</time>
      </trkpt>
      <trkpt lat="43.39042" lon="6.1124">
        <ele>295.79998779297</ele>
        <time>2012-10-30T16:20:47Z</time>
      </trkpt>
      <trkpt lat="43.39059" lon="6.11259">
        <ele>297.20001220703</ele>
        <time>2012-10-30T16:20:59Z</time>
      </trkpt>
      <trkpt lat="43.39063" lon="6.11269">
        <ele>298</ele>
        <time>2012-10-30T16:21:04Z</time>
      </trkpt>
      <trkpt lat="43.39076" lon="6.11293">
        <ele>298</ele>
        <time>2012-10-30T16:21:14Z</time>
      </trkpt>
      <trkpt lat="43.39086" lon="6.11301">
        <ele>297.60000610352</ele>
        <time>2012-10-30T16:21:18Z</time>
      </trkpt>
      <trkpt lat="43.39091" lon="6.11298">
        <ele>296.79998779297</ele>
        <time>2012-10-30T16:21:20Z</time>
      </trkpt>
      <trkpt lat="43.39103" lon="6.11266">
        <ele>295.79998779297</ele>
        <time>2012-10-30T16:21:27Z</time>
      </trkpt>
      <trkpt lat="43.3911" lon="6.11193">
        <ele>295.79998779297</ele>
        <time>2012-10-30T16:21:44Z</time>
      </trkpt>
      <trkpt lat="43.3911" lon="6.11178">
        <ele>295</ele>
        <time>2012-10-30T16:21:47Z</time>
      </trkpt>
      <trkpt lat="43.39112" lon="6.11174">
        <ele>294.60000610352</ele>
        <time>2012-10-30T16:21:48Z</time>
      </trkpt>
      <trkpt lat="43.39113" lon="6.11173">
        <ele>294.20001220703</ele>
        <time>2012-10-30T16:21:49Z</time>
      </trkpt>
      <trkpt lat="43.3913" lon="6.11165">
        <ele>291</ele>
        <time>2012-10-30T16:21:58Z</time>
      </trkpt>
      <trkpt lat="43.39133" lon="6.11162">
        <ele>290.39999389648</ele>
        <time>2012-10-30T16:21:59Z</time>
      </trkpt>
      <trkpt lat="43.39138" lon="6.11152">
        <ele>289.39999389648</ele>
        <time>2012-10-30T16:22:01Z</time>
      </trkpt>
      <trkpt lat="43.39146" lon="6.11086">
        <ele>287.39999389648</ele>
        <time>2012-10-30T16:22:13Z</time>
      </trkpt>
      <trkpt lat="43.39152" lon="6.11025">
        <ele>285.60000610352</ele>
        <time>2012-10-30T16:22:25Z</time>
      </trkpt>
      <trkpt lat="43.39149" lon="6.10992">
        <ele>285.20001220703</ele>
        <time>2012-10-30T16:22:32Z</time>
      </trkpt>
      <trkpt lat="43.39153" lon="6.10984">
        <ele>285.20001220703</ele>
        <time>2012-10-30T16:22:34Z</time>
      </trkpt>
      <trkpt lat="43.39174" lon="6.10959">
        <ele>284.39999389648</ele>
        <time>2012-10-30T16:22:42Z</time>
      </trkpt>
      <trkpt lat="43.39188" lon="6.10932">
        <ele>283.20001220703</ele>
        <time>2012-10-30T16:22:48Z</time>
      </trkpt>
      <trkpt lat="43.39207" lon="6.10916">
        <ele>282.79998779297</ele>
        <time>2012-10-30T16:22:54Z</time>
      </trkpt>
      <trkpt lat="43.39215" lon="6.10904">
        <ele>281</ele>
        <time>2012-10-30T16:22:58Z</time>
      </trkpt>
      <trkpt lat="43.3923" lon="6.1088">
        <ele>281</ele>
        <time>2012-10-30T16:23:05Z</time>
      </trkpt>
      <trkpt lat="43.3923" lon="6.10854">
        <ele>281</ele>
        <time>2012-10-30T16:23:10Z</time>
      </trkpt>
      <trkpt lat="43.39216" lon="6.10759">
        <ele>279</ele>
        <time>2012-10-30T16:23:27Z</time>
      </trkpt>
      <trkpt lat="43.39217" lon="6.10739">
        <ele>279</ele>
        <time>2012-10-30T16:23:33Z</time>
      </trkpt>
      <trkpt lat="43.39215" lon="6.10736">
        <ele>279</ele>
        <time>2012-10-30T16:23:47Z</time>
      </trkpt>
      <trkpt lat="43.39188" lon="6.10688">
        <ele>279</ele>
        <time>2012-10-30T16:24:01Z</time>
      </trkpt>
      <trkpt lat="43.39185" lon="6.10677">
        <ele>279</ele>
        <time>2012-10-30T16:24:05Z</time>
      </trkpt>
      <trkpt lat="43.39187" lon="6.10669">
        <ele>279</ele>
        <time>2012-10-30T16:24:07Z</time>
      </trkpt>
      <trkpt lat="43.39195" lon="6.10649">
        <ele>279</ele>
        <time>2012-10-30T16:24:13Z</time>
      </trkpt>
      <trkpt lat="43.39204" lon="6.10639">
        <ele>279</ele>
        <time>2012-10-30T16:24:17Z</time>
      </trkpt>
      <trkpt lat="43.39226" lon="6.10625">
        <ele>279</ele>
        <time>2012-10-30T16:24:25Z</time>
      </trkpt>
      <trkpt lat="43.39262" lon="6.10582">
        <ele>279</ele>
        <time>2012-10-30T16:24:40Z</time>
      </trkpt>
      <trkpt lat="43.3927" lon="6.10549">
        <ele>279</ele>
        <time>2012-10-30T16:24:47Z</time>
      </trkpt>
      <trkpt lat="43.39279" lon="6.10529">
        <ele>279</ele>
        <time>2012-10-30T16:24:52Z</time>
      </trkpt>
      <trkpt lat="43.39293" lon="6.10493">
        <ele>277.60000610352</ele>
        <time>2012-10-30T16:25:00Z</time>
      </trkpt>
      <trkpt lat="43.39326" lon="6.10434">
        <ele>274.79998779297</ele>
        <time>2012-10-30T16:25:12Z</time>
      </trkpt>
      <trkpt lat="43.39339" lon="6.1042">
        <ele>274.79998779297</ele>
        <time>2012-10-30T16:25:16Z</time>
      </trkpt>
      <trkpt lat="43.39356" lon="6.1042">
        <ele>274.20001220703</ele>
        <time>2012-10-30T16:25:20Z</time>
      </trkpt>
      <trkpt lat="43.39365" lon="6.10414">
        <ele>273.39999389648</ele>
        <time>2012-10-30T16:25:22Z</time>
      </trkpt>
      <trkpt lat="43.39373" lon="6.10384">
        <ele>272.60000610352</ele>
        <time>2012-10-30T16:25:27Z</time>
      </trkpt>
      <trkpt lat="43.39387" lon="6.10367">
        <ele>271.20001220703</ele>
        <time>2012-10-30T16:25:31Z</time>
      </trkpt>
      <trkpt lat="43.39419" lon="6.10308">
        <ele>270.39999389648</ele>
        <time>2012-10-30T16:25:43Z</time>
      </trkpt>
      <trkpt lat="43.3946" lon="6.10276">
        <ele>270.39999389648</ele>
        <time>2012-10-30T16:25:53Z</time>
      </trkpt>
      <trkpt lat="43.39485" lon="6.10246">
        <ele>268.20001220703</ele>
        <time>2012-10-30T16:25:59Z</time>
      </trkpt>
      <trkpt lat="43.39494" lon="6.10228">
        <ele>267.39999389648</ele>
        <time>2012-10-30T16:26:02Z</time>
      </trkpt>
      <trkpt lat="43.39524" lon="6.10117">
        <ele>264</ele>
        <time>2012-10-30T16:26:17Z</time>
      </trkpt>
      <trkpt lat="43.39542" lon="6.1008">
        <ele>263</ele>
        <time>2012-10-30T16:26:23Z</time>
      </trkpt>
      <trkpt lat="43.39548" lon="6.10058">
        <ele>261.79998779297</ele>
        <time>2012-10-30T16:26:26Z</time>
      </trkpt>
      <trkpt lat="43.39557" lon="6.10022">
        <ele>261.79998779297</ele>
        <time>2012-10-30T16:26:31Z</time>
      </trkpt>
      <trkpt lat="43.39551" lon="6.09993">
        <ele>261.79998779297</ele>
        <time>2012-10-30T16:26:37Z</time>
      </trkpt>
      <trkpt lat="43.39552" lon="6.0997">
        <ele>261.79998779297</ele>
        <time>2012-10-30T16:26:42Z</time>
      </trkpt>
      <trkpt lat="43.39553" lon="6.09947">
        <ele>261.79998779297</ele>
        <time>2012-10-30T16:26:47Z</time>
      </trkpt>
      <trkpt lat="43.39544" lon="6.09915">
        <ele>263</ele>
        <time>2012-10-30T16:26:57Z</time>
      </trkpt>
      <trkpt lat="43.39556" lon="6.09875">
        <ele>264</ele>
        <time>2012-10-30T16:27:11Z</time>
      </trkpt>
      <trkpt lat="43.39573" lon="6.09774">
        <ele>264</ele>
        <time>2012-10-30T16:27:41Z</time>
      </trkpt>
      <trkpt lat="43.39593" lon="6.09709">
        <ele>264</ele>
        <time>2012-10-30T16:27:57Z</time>
      </trkpt>
      <trkpt lat="43.39615" lon="6.09602">
        <ele>264</ele>
        <time>2012-10-30T16:28:24Z</time>
      </trkpt>
      <trkpt lat="43.39622" lon="6.09572">
        <ele>264</ele>
        <time>2012-10-30T16:28:36Z</time>
      </trkpt>
      <trkpt lat="43.3963" lon="6.09546">
        <ele>264</ele>
        <time>2012-10-30T16:28:54Z</time>
      </trkpt>
      <trkpt lat="43.39658" lon="6.09505">
        <ele>261.20001220703</ele>
        <time>2012-10-30T16:29:03Z</time>
      </trkpt>
      <trkpt lat="43.39668" lon="6.09483">
        <ele>259</ele>
        <time>2012-10-30T16:29:07Z</time>
      </trkpt>
      <trkpt lat="43.39672" lon="6.09464">
        <ele>256.79998779297</ele>
        <time>2012-10-30T16:29:11Z</time>
      </trkpt>
      <trkpt lat="43.39673" lon="6.09462">
        <ele>256.20001220703</ele>
        <time>2012-10-30T16:29:12Z</time>
      </trkpt>
      <trkpt lat="43.39679" lon="6.09462">
        <ele>254.60000610352</ele>
        <time>2012-10-30T16:29:16Z</time>
      </trkpt>
      <trkpt lat="43.3969" lon="6.09464">
        <ele>254.19999694824</ele>
        <time>2012-10-30T16:29:18Z</time>
      </trkpt>
      <trkpt lat="43.39699" lon="6.09461">
        <ele>253</ele>
        <time>2012-10-30T16:29:20Z</time>
      </trkpt>
      <trkpt lat="43.39708" lon="6.09441">
        <ele>250</ele>
        <time>2012-10-30T16:29:26Z</time>
      </trkpt>
      <trkpt lat="43.39709" lon="6.09441">
        <ele>250</ele>
        <time>2012-10-30T16:29:27Z</time>
      </trkpt>
      <trkpt lat="43.39709" lon="6.09441">
        <ele>250</ele>
        <time>2012-10-30T16:29:40Z</time>
      </trkpt>
      <trkpt lat="43.39718" lon="6.09424">
        <ele>249.60000610352</ele>
        <time>2012-10-30T16:29:52Z</time>
      </trkpt>
      <trkpt lat="43.39766" lon="6.09337">
        <ele>248</ele>
        <time>2012-10-30T16:30:13Z</time>
      </trkpt>
      <trkpt lat="43.39768" lon="6.09332">
        <ele>248</ele>
        <time>2012-10-30T16:30:14Z</time>
      </trkpt>
      <trkpt lat="43.39782" lon="6.09294">
        <ele>248</ele>
        <time>2012-10-30T16:30:21Z</time>
      </trkpt>
      <trkpt lat="43.39789" lon="6.09267">
        <ele>248</ele>
        <time>2012-10-30T16:30:26Z</time>
      </trkpt>
      <trkpt lat="43.39795" lon="6.0923">
        <ele>248</ele>
        <time>2012-10-30T16:30:33Z</time>
      </trkpt>
      <trkpt lat="43.39798" lon="6.0916">
        <ele>248</ele>
        <time>2012-10-30T16:30:47Z</time>
      </trkpt>
      <trkpt lat="43.39801" lon="6.09138">
        <ele>248</ele>
        <time>2012-10-30T16:30:52Z</time>
      </trkpt>
      <trkpt lat="43.39814" lon="6.09086">
        <ele>248.80000305176</ele>
        <time>2012-10-30T16:31:04Z</time>
      </trkpt>
      <trkpt lat="43.39819" lon="6.09074">
        <ele>250</ele>
        <time>2012-10-30T16:31:07Z</time>
      </trkpt>
      <trkpt lat="43.39832" lon="6.09049">
        <ele>250</ele>
        <time>2012-10-30T16:31:13Z</time>
      </trkpt>
      <trkpt lat="43.39853" lon="6.09026">
        <ele>250</ele>
        <time>2012-10-30T16:31:19Z</time>
      </trkpt>
      <trkpt lat="43.3987" lon="6.09005">
        <ele>248.19999694824</ele>
        <time>2012-10-30T16:31:24Z</time>
      </trkpt>
      <trkpt lat="43.39885" lon="6.08994">
        <ele>247.80000305176</ele>
        <time>2012-10-30T16:31:28Z</time>
      </trkpt>
      <trkpt lat="43.39929" lon="6.0899">
        <ele>245.60000610352</ele>
        <time>2012-10-30T16:31:38Z</time>
      </trkpt>
      <trkpt lat="43.39962" lon="6.08985">
        <ele>243.19999694824</ele>
        <time>2012-10-30T16:31:43Z</time>
      </trkpt>
      <trkpt lat="43.39991" lon="6.08976">
        <ele>243.19999694824</ele>
        <time>2012-10-30T16:31:48Z</time>
      </trkpt>
      <trkpt lat="43.39997" lon="6.08974">
        <ele>243.19999694824</ele>
        <time>2012-10-30T16:31:49Z</time>
      </trkpt>
      <trkpt lat="43.40013" lon="6.08964">
        <ele>243.19999694824</ele>
        <time>2012-10-30T16:31:52Z</time>
      </trkpt>
      <trkpt lat="43.40028" lon="6.08945">
        <ele>243.19999694824</ele>
        <time>2012-10-30T16:31:56Z</time>
      </trkpt>
      <trkpt lat="43.40055" lon="6.0885">
        <ele>243.19999694824</ele>
        <time>2012-10-30T16:32:14Z</time>
      </trkpt>
      <trkpt lat="43.40079" lon="6.0879">
        <ele>243.19999694824</ele>
        <time>2012-10-30T16:32:27Z</time>
      </trkpt>
      <trkpt lat="43.40089" lon="6.08758">
        <ele>243.19999694824</ele>
        <time>2012-10-30T16:32:33Z</time>
      </trkpt>
      <trkpt lat="43.40098" lon="6.08722">
        <ele>242.80000305176</ele>
        <time>2012-10-30T16:32:39Z</time>
      </trkpt>
      <trkpt lat="43.40101" lon="6.08694">
        <ele>241.19999694824</ele>
        <time>2012-10-30T16:32:43Z</time>
      </trkpt>
      <trkpt lat="43.40101" lon="6.08635">
        <ele>240.19999694824</ele>
        <time>2012-10-30T16:32:51Z</time>
      </trkpt>
      <trkpt lat="43.40137" lon="6.086">
        <ele>237.80000305176</ele>
        <time>2012-10-30T16:32:59Z</time>
      </trkpt>
      <trkpt lat="43.40163" lon="6.08585">
        <ele>237</ele>
        <time>2012-10-30T16:33:04Z</time>
      </trkpt>
      <trkpt lat="43.40169" lon="6.08575">
        <ele>237</ele>
        <time>2012-10-30T16:33:06Z</time>
      </trkpt>
      <trkpt lat="43.4017" lon="6.0856">
        <ele>237</ele>
        <time>2012-10-30T16:33:09Z</time>
      </trkpt>
      <trkpt lat="43.40168" lon="6.08511">
        <ele>237</ele>
        <time>2012-10-30T16:33:18Z</time>
      </trkpt>
      <trkpt lat="43.40176" lon="6.08449">
        <ele>237</ele>
        <time>2012-10-30T16:33:29Z</time>
      </trkpt>
      <trkpt lat="43.40186" lon="6.08272">
        <ele>237</ele>
        <time>2012-10-30T16:34:01Z</time>
      </trkpt>
      <trkpt lat="43.4019" lon="6.08262">
        <ele>237</ele>
        <time>2012-10-30T16:34:04Z</time>
      </trkpt>
      <trkpt lat="43.4019" lon="6.08262">
        <ele>237</ele>
        <time>2012-10-30T16:34:14Z</time>
      </trkpt>
      <trkpt lat="43.40192" lon="6.08255">
        <ele>237</ele>
        <time>2012-10-30T16:34:17Z</time>
      </trkpt>
      <trkpt lat="43.40206" lon="6.08236">
        <ele>236.19999694824</ele>
        <time>2012-10-30T16:34:22Z</time>
      </trkpt>
      <trkpt lat="43.40244" lon="6.08188">
        <ele>233.19999694824</ele>
        <time>2012-10-30T16:34:30Z</time>
      </trkpt>
      <trkpt lat="43.4027" lon="6.08163">
        <ele>231.60000610352</ele>
        <time>2012-10-30T16:34:34Z</time>
      </trkpt>
      <trkpt lat="43.403" lon="6.08145">
        <ele>229.60000610352</ele>
        <time>2012-10-30T16:34:38Z</time>
      </trkpt>
      <trkpt lat="43.40324" lon="6.08135">
        <ele>228.19999694824</ele>
        <time>2012-10-30T16:34:41Z</time>
      </trkpt>
      <trkpt lat="43.40361" lon="6.08131">
        <ele>226.39999389648</ele>
        <time>2012-10-30T16:34:46Z</time>
      </trkpt>
      <trkpt lat="43.40439" lon="6.08143">
        <ele>224</ele>
        <time>2012-10-30T16:34:56Z</time>
      </trkpt>
      <trkpt lat="43.40489" lon="6.08147">
        <ele>221</ele>
        <time>2012-10-30T16:35:02Z</time>
      </trkpt>
      <trkpt lat="43.40499" lon="6.08153">
        <ele>219.19999694824</ele>
        <time>2012-10-30T16:35:06Z</time>
      </trkpt>
      <trkpt lat="43.40506" lon="6.0816">
        <ele>218.80000305176</ele>
        <time>2012-10-30T16:35:09Z</time>
      </trkpt>
      <trkpt lat="43.4052" lon="6.08177">
        <ele>217.19999694824</ele>
        <time>2012-10-30T16:35:13Z</time>
      </trkpt>
      <trkpt lat="43.4053" lon="6.08181">
        <ele>217.19999694824</ele>
        <time>2012-10-30T16:35:15Z</time>
      </trkpt>
      <trkpt lat="43.40564" lon="6.08167">
        <ele>217.19999694824</ele>
        <time>2012-10-30T16:35:22Z</time>
      </trkpt>
      <trkpt lat="43.40666" lon="6.08193">
        <ele>217.19999694824</ele>
        <time>2012-10-30T16:35:39Z</time>
      </trkpt>
      <trkpt lat="43.40708" lon="6.08195">
        <ele>216</ele>
        <time>2012-10-30T16:35:45Z</time>
      </trkpt>
      <trkpt lat="43.40715" lon="6.08194">
        <ele>215.60000610352</ele>
        <time>2012-10-30T16:35:46Z</time>
      </trkpt>
      <trkpt lat="43.40766" lon="6.08184">
        <ele>215.19999694824</ele>
        <time>2012-10-30T16:35:53Z</time>
      </trkpt>
      <trkpt lat="43.4081" lon="6.08165">
        <ele>214.39999389648</ele>
        <time>2012-10-30T16:35:59Z</time>
      </trkpt>
      <trkpt lat="43.40937" lon="6.08094">
        <ele>211</ele>
        <time>2012-10-30T16:36:16Z</time>
      </trkpt>
      <trkpt lat="43.40973" lon="6.08072">
        <ele>211</ele>
        <time>2012-10-30T16:36:21Z</time>
      </trkpt>
      <trkpt lat="43.41045" lon="6.08015">
        <ele>211</ele>
        <time>2012-10-30T16:36:32Z</time>
      </trkpt>
      <trkpt lat="43.41082" lon="6.07979">
        <ele>211</ele>
        <time>2012-10-30T16:36:38Z</time>
      </trkpt>
      <trkpt lat="43.41159" lon="6.07884">
        <ele>211</ele>
        <time>2012-10-30T16:36:54Z</time>
      </trkpt>
      <trkpt lat="43.41197" lon="6.07827">
        <ele>211</ele>
        <time>2012-10-30T16:37:03Z</time>
      </trkpt>
      <trkpt lat="43.41228" lon="6.0777">
        <ele>211</ele>
        <time>2012-10-30T16:37:11Z</time>
      </trkpt>
      <trkpt lat="43.41257" lon="6.07707">
        <ele>211</ele>
        <time>2012-10-30T16:37:19Z</time>
      </trkpt>
      <trkpt lat="43.41285" lon="6.07635">
        <ele>211</ele>
        <time>2012-10-30T16:37:28Z</time>
      </trkpt>
      <trkpt lat="43.41307" lon="6.07563">
        <ele>210.19999694824</ele>
        <time>2012-10-30T16:37:37Z</time>
      </trkpt>
      <trkpt lat="43.41323" lon="6.07493">
        <ele>209</ele>
        <time>2012-10-30T16:37:46Z</time>
      </trkpt>
      <trkpt lat="43.41338" lon="6.07427">
        <ele>209</ele>
        <time>2012-10-30T16:37:55Z</time>
      </trkpt>
      <trkpt lat="43.41352" lon="6.07358">
        <ele>209</ele>
        <time>2012-10-30T16:38:05Z</time>
      </trkpt>
      <trkpt lat="43.41429" lon="6.06967">
        <ele>213.19999694824</ele>
        <time>2012-10-30T16:39:07Z</time>
      </trkpt>
      <trkpt lat="43.41441" lon="6.06932">
        <ele>213.19999694824</ele>
        <time>2012-10-30T16:39:13Z</time>
      </trkpt>
      <trkpt lat="43.41475" lon="6.06898">
        <ele>213.19999694824</ele>
        <time>2012-10-30T16:39:22Z</time>
      </trkpt>
      <trkpt lat="43.41495" lon="6.06898">
        <ele>213.19999694824</ele>
        <time>2012-10-30T16:39:26Z</time>
      </trkpt>
      <trkpt lat="43.41522" lon="6.06906">
        <ele>213.19999694824</ele>
        <time>2012-10-30T16:39:32Z</time>
      </trkpt>
      <trkpt lat="43.41565" lon="6.06927">
        <ele>213.19999694824</ele>
        <time>2012-10-30T16:39:42Z</time>
      </trkpt>
      <trkpt lat="43.41645" lon="6.06964">
        <ele>217.39999389648</ele>
        <time>2012-10-30T16:40:02Z</time>
      </trkpt>
      <trkpt lat="43.41686" lon="6.06988">
        <ele>219.60000610352</ele>
        <time>2012-10-30T16:40:16Z</time>
      </trkpt>
      <trkpt lat="43.4169" lon="6.06993">
        <ele>219.60000610352</ele>
        <time>2012-10-30T16:40:18Z</time>
      </trkpt>
      <trkpt lat="43.41693" lon="6.07001">
        <ele>219.60000610352</ele>
        <time>2012-10-30T16:40:20Z</time>
      </trkpt>
      <trkpt lat="43.41708" lon="6.07061">
        <ele>219.60000610352</ele>
        <time>2012-10-30T16:40:33Z</time>
      </trkpt>
      <trkpt lat="43.41723" lon="6.07088">
        <ele>219.60000610352</ele>
        <time>2012-10-30T16:40:39Z</time>
      </trkpt>
      <trkpt lat="43.41766" lon="6.07099">
        <ele>219.60000610352</ele>
        <time>2012-10-30T16:40:50Z</time>
      </trkpt>
      <trkpt lat="43.41795" lon="6.07102">
        <ele>219.60000610352</ele>
        <time>2012-10-30T16:40:58Z</time>
      </trkpt>
      <trkpt lat="43.4184" lon="6.07133">
        <ele>219.60000610352</ele>
        <time>2012-10-30T16:41:13Z</time>
      </trkpt>
      <trkpt lat="43.41846" lon="6.07147">
        <ele>220</ele>
        <time>2012-10-30T16:41:18Z</time>
      </trkpt>
      <trkpt lat="43.41842" lon="6.07197">
        <ele>223.60000610352</ele>
        <time>2012-10-30T16:41:35Z</time>
      </trkpt>
      <trkpt lat="43.41862" lon="6.07207">
        <ele>224</ele>
        <time>2012-10-30T16:41:45Z</time>
      </trkpt>
      <trkpt lat="43.41864" lon="6.07214">
        <ele>225.19999694824</ele>
        <time>2012-10-30T16:41:48Z</time>
      </trkpt>
      <trkpt lat="43.41863" lon="6.07266">
        <ele>225.60000610352</ele>
        <time>2012-10-30T16:42:14Z</time>
      </trkpt>
    </trkseg>
  </trk>
</gpx>